<?xml version="1.0" encoding="utf-8"?>
<gpx xmlns:xsi="http://www.w3.org/2001/XMLSchema-instance" xmlns:xsd="http://www.w3.org/2001/XMLSchema" version="1.1" creator="Shapelink.com" xmlns="http://www.topografix.com/GPX/1/1" xmlns:gpxtpx="http://www.garmin.com/xmlschemas/TrackPointExtension/v1">
  <metadata>
    <name>Ejecutar 9.04 km, 2020-03-02</name>
    <desc></desc>
    <author><name>Per Rooth</name></author> 
    <time>2020-03-02T17:39:32Z</time>
  </metadata>
  <trk>
    <name>Ejecutar 9.04 km, 2020-03-02</name>
    <trkseg>
      <trkpt lat="56.891365224558" lon="14.824023486364">
        <ele>171.4</ele>
        <time>2020-03-02T17:39:32Z</time>
      </trkpt>
      <trkpt lat="56.891336390822" lon="14.824049637892">
        <ele>171.8</ele>
        <time>2020-03-02T17:39:33Z</time>
      </trkpt>
      <trkpt lat="56.89128207611" lon="14.824056930145">
        <ele>172.6</ele>
        <time>2020-03-02T17:39:35Z</time>
      </trkpt>
      <trkpt lat="56.891247458863" lon="14.824086769709">
        <ele>171.2</ele>
        <time>2020-03-02T17:39:37Z</time>
      </trkpt>
      <trkpt lat="56.89123765204" lon="14.824121973689">
        <ele>171.2</ele>
        <time>2020-03-02T17:39:38Z</time>
      </trkpt>
      <trkpt lat="56.891093734817" lon="14.824349709912">
        <ele>171</ele>
        <time>2020-03-02T17:39:45Z</time>
      </trkpt>
      <trkpt lat="56.890944453178" lon="14.824571746443">
        <ele>171.6</ele>
        <time>2020-03-02T17:39:52Z</time>
      </trkpt>
      <trkpt lat="56.890892485398" lon="14.824688757767">
        <ele>170</ele>
        <time>2020-03-02T17:39:55Z</time>
      </trkpt>
      <trkpt lat="56.890863064929" lon="14.824776348622">
        <ele>168.8</ele>
        <time>2020-03-02T17:39:57Z</time>
      </trkpt>
      <trkpt lat="56.890797015557" lon="14.824957481481">
        <ele>167.8</ele>
        <time>2020-03-02T17:40:01Z</time>
      </trkpt>
      <trkpt lat="56.890669526858" lon="14.825209692852">
        <ele>167.2</ele>
        <time>2020-03-02T17:40:07Z</time>
      </trkpt>
      <trkpt lat="56.890579002338" lon="14.825394765204">
        <ele>166.8</ele>
        <time>2020-03-02T17:40:12Z</time>
      </trkpt>
      <trkpt lat="56.890488813094" lon="14.825685868591">
        <ele>166.8</ele>
        <time>2020-03-02T17:40:18Z</time>
      </trkpt>
      <trkpt lat="56.890410274691" lon="14.826017624193">
        <ele>166</ele>
        <time>2020-03-02T17:40:24Z</time>
      </trkpt>
      <trkpt lat="56.890391750692" lon="14.826110328007">
        <ele>165.6</ele>
        <time>2020-03-02T17:40:26Z</time>
      </trkpt>
      <trkpt lat="56.890351769029" lon="14.826449292043">
        <ele>165.6</ele>
        <time>2020-03-02T17:40:33Z</time>
      </trkpt>
      <trkpt lat="56.890372220865" lon="14.826592287257">
        <ele>165.8</ele>
        <time>2020-03-02T17:40:36Z</time>
      </trkpt>
      <trkpt lat="56.890352439581" lon="14.826949691473">
        <ele>165</ele>
        <time>2020-03-02T17:40:44Z</time>
      </trkpt>
      <trkpt lat="56.890295945575" lon="14.827284296921">
        <ele>165</ele>
        <time>2020-03-02T17:40:51Z</time>
      </trkpt>
      <trkpt lat="56.890245905632" lon="14.827619992016">
        <ele>164.8</ele>
        <time>2020-03-02T17:40:58Z</time>
      </trkpt>
      <trkpt lat="56.890209779643" lon="14.827727196517">
        <ele>164.8</ele>
        <time>2020-03-02T17:41:01Z</time>
      </trkpt>
      <trkpt lat="56.890177090233" lon="14.827830796801">
        <ele>164.8</ele>
        <time>2020-03-02T17:41:03Z</time>
      </trkpt>
      <trkpt lat="56.890100898762" lon="14.82807730848">
        <ele>164.6</ele>
        <time>2020-03-02T17:41:08Z</time>
      </trkpt>
      <trkpt lat="56.889964525249" lon="14.828303535961">
        <ele>165.6</ele>
        <time>2020-03-02T17:41:15Z</time>
      </trkpt>
      <trkpt lat="56.88987224053" lon="14.828595561357">
        <ele>165.2</ele>
        <time>2020-03-02T17:41:22Z</time>
      </trkpt>
      <trkpt lat="56.889825637166" lon="14.828889179314">
        <ele>165.2</ele>
        <time>2020-03-02T17:41:29Z</time>
      </trkpt>
      <trkpt lat="56.88982865465" lon="14.829155472277">
        <ele>165.2</ele>
        <time>2020-03-02T17:41:35Z</time>
      </trkpt>
      <trkpt lat="56.889783811485" lon="14.829230993196">
        <ele>165.2</ele>
        <time>2020-03-02T17:41:37Z</time>
      </trkpt>
      <trkpt lat="56.889737627216" lon="14.829251361213">
        <ele>165.8</ele>
        <time>2020-03-02T17:41:39Z</time>
      </trkpt>
      <trkpt lat="56.889714912267" lon="14.829266951547">
        <ele>165.6</ele>
        <time>2020-03-02T17:41:40Z</time>
      </trkpt>
      <trkpt lat="56.889542077489" lon="14.82937734117">
        <ele>165</ele>
        <time>2020-03-02T17:41:48Z</time>
      </trkpt>
      <trkpt lat="56.889355580214" lon="14.829423860715">
        <ele>165</ele>
        <time>2020-03-02T17:41:56Z</time>
      </trkpt>
      <trkpt lat="56.889308641574" lon="14.829458058867">
        <ele>164.6</ele>
        <time>2020-03-02T17:41:58Z</time>
      </trkpt>
      <trkpt lat="56.889262457305" lon="14.829487395517">
        <ele>164.6</ele>
        <time>2020-03-02T17:42:00Z</time>
      </trkpt>
      <trkpt lat="56.889076211487" lon="14.829572304164">
        <ele>164.4</ele>
        <time>2020-03-02T17:42:07Z</time>
      </trkpt>
      <trkpt lat="56.888881416131" lon="14.829645813427">
        <ele>164.2</ele>
        <time>2020-03-02T17:42:15Z</time>
      </trkpt>
      <trkpt lat="56.888693913028" lon="14.82977548142">
        <ele>164.2</ele>
        <time>2020-03-02T17:42:23Z</time>
      </trkpt>
      <trkpt lat="56.88854538576" lon="14.830021657823">
        <ele>164.2</ele>
        <time>2020-03-02T17:42:30Z</time>
      </trkpt>
      <trkpt lat="56.888471038307" lon="14.830260625792">
        <ele>164.8</ele>
        <time>2020-03-02T17:42:35Z</time>
      </trkpt>
      <trkpt lat="56.888380932882" lon="14.830564134391">
        <ele>164.8</ele>
        <time>2020-03-02T17:42:41Z</time>
      </trkpt>
      <trkpt lat="56.88833667645" lon="14.830741830671">
        <ele>165</ele>
        <time>2020-03-02T17:42:45Z</time>
      </trkpt>
      <trkpt lat="56.888338101373" lon="14.830823638015">
        <ele>165</ele>
        <time>2020-03-02T17:42:48Z</time>
      </trkpt>
      <trkpt lat="56.888360481046" lon="14.830921706245">
        <ele>165</ele>
        <time>2020-03-02T17:42:53Z</time>
      </trkpt>
      <trkpt lat="56.888396523216" lon="14.830968561066">
        <ele>166</ele>
        <time>2020-03-02T17:42:56Z</time>
      </trkpt>
      <trkpt lat="56.888440109096" lon="14.831034358981">
        <ele>167.2</ele>
        <time>2020-03-02T17:42:59Z</time>
      </trkpt>
      <trkpt lat="56.888489562306" lon="14.831104515484">
        <ele>168.4</ele>
        <time>2020-03-02T17:43:03Z</time>
      </trkpt>
      <trkpt lat="56.888532729091" lon="14.831170816313">
        <ele>169.6</ele>
        <time>2020-03-02T17:43:06Z</time>
      </trkpt>
      <trkpt lat="56.888577488437" lon="14.831235440762">
        <ele>171</ele>
        <time>2020-03-02T17:43:09Z</time>
      </trkpt>
      <trkpt lat="56.88871889109" lon="14.831451190868">
        <ele>172</ele>
        <time>2020-03-02T17:43:17Z</time>
      </trkpt>
      <trkpt lat="56.888869094738" lon="14.831706000628">
        <ele>172.8</ele>
        <time>2020-03-02T17:43:25Z</time>
      </trkpt>
      <trkpt lat="56.888878733923" lon="14.831785963954">
        <ele>172.8</ele>
        <time>2020-03-02T17:43:27Z</time>
      </trkpt>
      <trkpt lat="56.888868843281" lon="14.831879673596">
        <ele>173</ele>
        <time>2020-03-02T17:43:29Z</time>
      </trkpt>
      <trkpt lat="56.888867502177" lon="14.831990482314">
        <ele>173.2</ele>
        <time>2020-03-02T17:43:32Z</time>
      </trkpt>
      <trkpt lat="56.888838500803" lon="14.832130376225">
        <ele>174.2</ele>
        <time>2020-03-02T17:43:36Z</time>
      </trkpt>
      <trkpt lat="56.888834477491" lon="14.832380324483">
        <ele>175.6</ele>
        <time>2020-03-02T17:43:42Z</time>
      </trkpt>
      <trkpt lat="56.888805811393" lon="14.832543436257">
        <ele>175.8</ele>
        <time>2020-03-02T17:43:46Z</time>
      </trkpt>
      <trkpt lat="56.888805559936" lon="14.832643516143">
        <ele>176.2</ele>
        <time>2020-03-02T17:43:48Z</time>
      </trkpt>
      <trkpt lat="56.888769266309" lon="14.832838646775">
        <ele>176.6</ele>
        <time>2020-03-02T17:43:52Z</time>
      </trkpt>
      <trkpt lat="56.888723249678" lon="14.833162942486">
        <ele>176.6</ele>
        <time>2020-03-02T17:43:58Z</time>
      </trkpt>
      <trkpt lat="56.88862836657" lon="14.833385230474">
        <ele>175.6</ele>
        <time>2020-03-02T17:44:04Z</time>
      </trkpt>
      <trkpt lat="56.888487718288" lon="14.833613469611">
        <ele>175.4</ele>
        <time>2020-03-02T17:44:11Z</time>
      </trkpt>
      <trkpt lat="56.888371796611" lon="14.833876325995">
        <ele>176.6</ele>
        <time>2020-03-02T17:44:18Z</time>
      </trkpt>
      <trkpt lat="56.888364420539" lon="14.833925946843">
        <ele>176.6</ele>
        <time>2020-03-02T17:44:19Z</time>
      </trkpt>
      <trkpt lat="56.888319745012" lon="14.834260719929">
        <ele>176.4</ele>
        <time>2020-03-02T17:44:25Z</time>
      </trkpt>
      <trkpt lat="56.888427284789" lon="14.834483343193">
        <ele>178.2</ele>
        <time>2020-03-02T17:44:35Z</time>
      </trkpt>
      <trkpt lat="56.888460644751" lon="14.834535981525">
        <ele>179.2</ele>
        <time>2020-03-02T17:44:38Z</time>
      </trkpt>
      <trkpt lat="56.888523928096" lon="14.834583590717">
        <ele>180.4</ele>
        <time>2020-03-02T17:44:42Z</time>
      </trkpt>
      <trkpt lat="56.88856047318" lon="14.834602282354">
        <ele>181.2</ele>
        <time>2020-03-02T17:44:44Z</time>
      </trkpt>
      <trkpt lat="56.888574051858" lon="14.834630780814">
        <ele>181.8</ele>
        <time>2020-03-02T17:44:45Z</time>
      </trkpt>
      <trkpt lat="56.888594084599" lon="14.834690208485">
        <ele>182.8</ele>
        <time>2020-03-02T17:44:47Z</time>
      </trkpt>
      <trkpt lat="56.888660385428" lon="14.834832197871">
        <ele>184</ele>
        <time>2020-03-02T17:44:52Z</time>
      </trkpt>
      <trkpt lat="56.888759878581" lon="14.835133862452">
        <ele>184.8</ele>
        <time>2020-03-02T17:45:01Z</time>
      </trkpt>
      <trkpt lat="56.888861802485" lon="14.835421780717">
        <ele>183.8</ele>
        <time>2020-03-02T17:45:08Z</time>
      </trkpt>
      <trkpt lat="56.888955847403" lon="14.835738784175">
        <ele>183.4</ele>
        <time>2020-03-02T17:45:16Z</time>
      </trkpt>
      <trkpt lat="56.888990129374" lon="14.835953947548">
        <ele>185.4</ele>
        <time>2020-03-02T17:45:23Z</time>
      </trkpt>
      <trkpt lat="56.889028267019" lon="14.836011531201">
        <ele>186.4</ele>
        <time>2020-03-02T17:45:26Z</time>
      </trkpt>
      <trkpt lat="56.889073529279" lon="14.836042544231">
        <ele>187.6</ele>
        <time>2020-03-02T17:45:30Z</time>
      </trkpt>
      <trkpt lat="56.889189786232" lon="14.836186293816">
        <ele>188.8</ele>
        <time>2020-03-02T17:45:36Z</time>
      </trkpt>
      <trkpt lat="56.889315011818" lon="14.836352423074">
        <ele>188</ele>
        <time>2020-03-02T17:45:43Z</time>
      </trkpt>
      <trkpt lat="56.889333871093" lon="14.83637119853">
        <ele>187.8</ele>
        <time>2020-03-02T17:45:44Z</time>
      </trkpt>
      <trkpt lat="56.889385587416" lon="14.836445126888">
        <ele>186.4</ele>
        <time>2020-03-02T17:45:47Z</time>
      </trkpt>
      <trkpt lat="56.889418947378" lon="14.836484186542">
        <ele>185.4</ele>
        <time>2020-03-02T17:45:49Z</time>
      </trkpt>
      <trkpt lat="56.889471920986" lon="14.836522324187">
        <ele>184.2</ele>
        <time>2020-03-02T17:45:52Z</time>
      </trkpt>
      <trkpt lat="56.889612233992" lon="14.836701529209">
        <ele>183</ele>
        <time>2020-03-02T17:45:59Z</time>
      </trkpt>
      <trkpt lat="56.889736789026" lon="14.8369855918">
        <ele>182</ele>
        <time>2020-03-02T17:46:07Z</time>
      </trkpt>
      <trkpt lat="56.889856566377" lon="14.837114337784">
        <ele>181.2</ele>
        <time>2020-03-02T17:46:12Z</time>
      </trkpt>
      <trkpt lat="56.889928063984" lon="14.837169071591">
        <ele>181</ele>
        <time>2020-03-02T17:46:16Z</time>
      </trkpt>
      <trkpt lat="56.890022947092" lon="14.837262529776">
        <ele>179.8</ele>
        <time>2020-03-02T17:46:21Z</time>
      </trkpt>
      <trkpt lat="56.890100898762" lon="14.837355485047">
        <ele>179.8</ele>
        <time>2020-03-02T17:46:26Z</time>
      </trkpt>
      <trkpt lat="56.890284294734" lon="14.837149290307">
        <ele>180.8</ele>
        <time>2020-03-02T17:46:35Z</time>
      </trkpt>
      <trkpt lat="56.890304327475" lon="14.837131855955">
        <ele>181.2</ele>
        <time>2020-03-02T17:46:36Z</time>
      </trkpt>
      <trkpt lat="56.890377082367" lon="14.837054993932">
        <ele>181.8</ele>
        <time>2020-03-02T17:46:39Z</time>
      </trkpt>
      <trkpt lat="56.890449501983" lon="14.836973773321">
        <ele>182.2</ele>
        <time>2020-03-02T17:46:43Z</time>
      </trkpt>
      <trkpt lat="56.890570704257" lon="14.836808482253">
        <ele>182</ele>
        <time>2020-03-02T17:46:51Z</time>
      </trkpt>
      <trkpt lat="56.890615631241" lon="14.836828347356">
        <ele>181.8</ele>
        <time>2020-03-02T17:46:53Z</time>
      </trkpt>
      <trkpt lat="56.890695259291" lon="14.83690093461">
        <ele>182.6</ele>
        <time>2020-03-02T17:46:58Z</time>
      </trkpt>
      <trkpt lat="56.890772540409" lon="14.836926499405">
        <ele>183.2</ele>
        <time>2020-03-02T17:47:03Z</time>
      </trkpt>
      <trkpt lat="56.890909500655" lon="14.836982825773">
        <ele>183.6</ele>
        <time>2020-03-02T17:47:10Z</time>
      </trkpt>
      <trkpt lat="56.891004551401" lon="14.836986597628">
        <ele>182</ele>
        <time>2020-03-02T17:47:15Z</time>
      </trkpt>
      <trkpt lat="56.891052076774" lon="14.836977964271">
        <ele>180.8</ele>
        <time>2020-03-02T17:47:17Z</time>
      </trkpt>
      <trkpt lat="56.891103625459" lon="14.836964217955">
        <ele>179.6</ele>
        <time>2020-03-02T17:47:19Z</time>
      </trkpt>
      <trkpt lat="56.89118568426" lon="14.836927169957">
        <ele>178.6</ele>
        <time>2020-03-02T17:47:23Z</time>
      </trkpt>
      <trkpt lat="56.891379138512" lon="14.836907388673">
        <ele>179</ele>
        <time>2020-03-02T17:47:32Z</time>
      </trkpt>
      <trkpt lat="56.891418365804" lon="14.836917279315">
        <ele>179.6</ele>
        <time>2020-03-02T17:47:34Z</time>
      </trkpt>
      <trkpt lat="56.891574352963" lon="14.836913926555">
        <ele>178</ele>
        <time>2020-03-02T17:47:41Z</time>
      </trkpt>
      <trkpt lat="56.891657166135" lon="14.836855588531">
        <ele>177</ele>
        <time>2020-03-02T17:47:45Z</time>
      </trkpt>
      <trkpt lat="56.891837544623" lon="14.836771434255">
        <ele>177.2</ele>
        <time>2020-03-02T17:47:53Z</time>
      </trkpt>
      <trkpt lat="56.892037117662" lon="14.836696835345">
        <ele>177.8</ele>
        <time>2020-03-02T17:48:01Z</time>
      </trkpt>
      <trkpt lat="56.892066370493" lon="14.836699266096">
        <ele>178</ele>
        <time>2020-03-02T17:48:02Z</time>
      </trkpt>
      <trkpt lat="56.892145160353" lon="14.836679065717">
        <ele>177.6</ele>
        <time>2020-03-02T17:48:05Z</time>
      </trkpt>
      <trkpt lat="56.89220995244" lon="14.836625589195">
        <ele>177.8</ele>
        <time>2020-03-02T17:48:08Z</time>
      </trkpt>
      <trkpt lat="56.892368873264" lon="14.836402295379">
        <ele>177.6</ele>
        <time>2020-03-02T17:48:16Z</time>
      </trkpt>
      <trkpt lat="56.892466857675" lon="14.83609375764">
        <ele>178</ele>
        <time>2020-03-02T17:48:22Z</time>
      </trkpt>
      <trkpt lat="56.892597950591" lon="14.835827799953">
        <ele>178</ele>
        <time>2020-03-02T17:48:29Z</time>
      </trkpt>
      <trkpt lat="56.892706663834" lon="14.835706262403">
        <ele>178</ele>
        <time>2020-03-02T17:48:33Z</time>
      </trkpt>
      <trkpt lat="56.892822082597" lon="14.835475089601">
        <ele>177</ele>
        <time>2020-03-02T17:48:40Z</time>
      </trkpt>
      <trkpt lat="56.892965245449" lon="14.835221704764">
        <ele>176.2</ele>
        <time>2020-03-02T17:48:47Z</time>
      </trkpt>
      <trkpt lat="56.89298276362" lon="14.835187255155">
        <ele>176</ele>
        <time>2020-03-02T17:48:48Z</time>
      </trkpt>
      <trkpt lat="56.893030205174" lon="14.835038392611">
        <ele>176</ele>
        <time>2020-03-02T17:48:52Z</time>
      </trkpt>
      <trkpt lat="56.89318141465" lon="14.834786851792">
        <ele>176.2</ele>
        <time>2020-03-02T17:48:58Z</time>
      </trkpt>
      <trkpt lat="56.893277722681" lon="14.834482253546">
        <ele>176.2</ele>
        <time>2020-03-02T17:49:06Z</time>
      </trkpt>
      <trkpt lat="56.893355339075" lon="14.834138679465">
        <ele>176</ele>
        <time>2020-03-02T17:49:13Z</time>
      </trkpt>
      <trkpt lat="56.893463381766" lon="14.833837936893">
        <ele>175.4</ele>
        <time>2020-03-02T17:49:19Z</time>
      </trkpt>
      <trkpt lat="56.893495400624" lon="14.833738276102">
        <ele>175</ele>
        <time>2020-03-02T17:49:22Z</time>
      </trkpt>
      <trkpt lat="56.893587014791" lon="14.833420518273">
        <ele>174</ele>
        <time>2020-03-02T17:49:29Z</time>
      </trkpt>
      <trkpt lat="56.893632696146" lon="14.833150285817">
        <ele>174.6</ele>
        <time>2020-03-02T17:49:37Z</time>
      </trkpt>
      <trkpt lat="56.893770243125" lon="14.832921040852">
        <ele>173.8</ele>
        <time>2020-03-02T17:49:45Z</time>
      </trkpt>
      <trkpt lat="56.893852553383" lon="14.832792043411">
        <ele>172.6</ele>
        <time>2020-03-02T17:49:49Z</time>
      </trkpt>
      <trkpt lat="56.893869987735" lon="14.832758431992">
        <ele>172.2</ele>
        <time>2020-03-02T17:49:50Z</time>
      </trkpt>
      <trkpt lat="56.893916255823" lon="14.832613760398">
        <ele>171.8</ele>
        <time>2020-03-02T17:49:52Z</time>
      </trkpt>
      <trkpt lat="56.893927152293" lon="14.832535892547">
        <ele>171.4</ele>
        <time>2020-03-02T17:49:54Z</time>
      </trkpt>
      <trkpt lat="56.893932600528" lon="14.83236045938">
        <ele>172.6</ele>
        <time>2020-03-02T17:49:59Z</time>
      </trkpt>
      <trkpt lat="56.893924218628" lon="14.832262810245">
        <ele>173.8</ele>
        <time>2020-03-02T17:50:02Z</time>
      </trkpt>
      <trkpt lat="56.89393746203" lon="14.832094501693">
        <ele>175</ele>
        <time>2020-03-02T17:50:05Z</time>
      </trkpt>
      <trkpt lat="56.893936707659" lon="14.831970617211">
        <ele>176</ele>
        <time>2020-03-02T17:50:08Z</time>
      </trkpt>
      <trkpt lat="56.893882728223" lon="14.831649590441">
        <ele>176.8</ele>
        <time>2020-03-02T17:50:17Z</time>
      </trkpt>
      <trkpt lat="56.893784743812" lon="14.831376089044">
        <ele>175.8</ele>
        <time>2020-03-02T17:50:25Z</time>
      </trkpt>
      <trkpt lat="56.893733698041" lon="14.831303250333">
        <ele>175</ele>
        <time>2020-03-02T17:50:28Z</time>
      </trkpt>
      <trkpt lat="56.893617357269" lon="14.831050787505">
        <ele>175.4</ele>
        <time>2020-03-02T17:50:36Z</time>
      </trkpt>
      <trkpt lat="56.893543345092" lon="14.830730431287">
        <ele>174.2</ele>
        <time>2020-03-02T17:50:46Z</time>
      </trkpt>
      <trkpt lat="56.893525826921" lon="14.830674691652">
        <ele>174</ele>
        <time>2020-03-02T17:50:48Z</time>
      </trkpt>
      <trkpt lat="56.893507051465" lon="14.830606043891">
        <ele>174</ele>
        <time>2020-03-02T17:50:50Z</time>
      </trkpt>
      <trkpt lat="56.893441421188" lon="14.830427174145">
        <ele>172.8</ele>
        <time>2020-03-02T17:50:54Z</time>
      </trkpt>
      <trkpt lat="56.893369001572" lon="14.830136825129">
        <ele>171.8</ele>
        <time>2020-03-02T17:50:59Z</time>
      </trkpt>
      <trkpt lat="56.89334569989" lon="14.830101118235">
        <ele>171.6</ele>
        <time>2020-03-02T17:51:00Z</time>
      </trkpt>
      <trkpt lat="56.893262970537" lon="14.830077732734">
        <ele>171</ele>
        <time>2020-03-02T17:51:04Z</time>
      </trkpt>
      <trkpt lat="56.893228269471" lon="14.830030961732">
        <ele>171</ele>
        <time>2020-03-02T17:51:07Z</time>
      </trkpt>
      <trkpt lat="56.893197256441" lon="14.829995841571">
        <ele>172.2</ele>
        <time>2020-03-02T17:51:09Z</time>
      </trkpt>
      <trkpt lat="56.89317387094" lon="14.829964409446">
        <ele>173</ele>
        <time>2020-03-02T17:51:11Z</time>
      </trkpt>
      <trkpt lat="56.893115113821" lon="14.829944292886">
        <ele>174.4</ele>
        <time>2020-03-02T17:51:15Z</time>
      </trkpt>
      <trkpt lat="56.893087788827" lon="14.829946388361">
        <ele>175.4</ele>
        <time>2020-03-02T17:51:17Z</time>
      </trkpt>
      <trkpt lat="56.893065660611" lon="14.829946220723">
        <ele>176.6</ele>
        <time>2020-03-02T17:51:19Z</time>
      </trkpt>
      <trkpt lat="56.893020230713" lon="14.829944711981">
        <ele>177.6</ele>
        <time>2020-03-02T17:51:22Z</time>
      </trkpt>
      <trkpt lat="56.892942362862" lon="14.829978742495">
        <ele>179</ele>
        <time>2020-03-02T17:51:27Z</time>
      </trkpt>
      <trkpt lat="56.892891736186" lon="14.829977317572">
        <ele>180</ele>
        <time>2020-03-02T17:51:30Z</time>
      </trkpt>
      <trkpt lat="56.89273633576" lon="14.830006654222">
        <ele>179</ele>
        <time>2020-03-02T17:51:37Z</time>
      </trkpt>
      <trkpt lat="56.892637010245" lon="14.830042444935">
        <ele>180.2</ele>
        <time>2020-03-02T17:51:42Z</time>
      </trkpt>
      <trkpt lat="56.892581186791" lon="14.83009483181">
        <ele>181.4</ele>
        <time>2020-03-02T17:51:45Z</time>
      </trkpt>
      <trkpt lat="56.892487560968" lon="14.830195330791">
        <ele>182.4</ele>
        <time>2020-03-02T17:51:49Z</time>
      </trkpt>
      <trkpt lat="56.892365604323" lon="14.830330447019">
        <ele>183.6</ele>
        <time>2020-03-02T17:51:56Z</time>
      </trkpt>
      <trkpt lat="56.892314558552" lon="14.830366070094">
        <ele>184.4</ele>
        <time>2020-03-02T17:51:59Z</time>
      </trkpt>
      <trkpt lat="56.892298465304" lon="14.830377385659">
        <ele>184.8</ele>
        <time>2020-03-02T17:52:00Z</time>
      </trkpt>
      <trkpt lat="56.892263428962" lon="14.830439998452">
        <ele>185.4</ele>
        <time>2020-03-02T17:52:02Z</time>
      </trkpt>
      <trkpt lat="56.892173658813" lon="14.830545275116">
        <ele>185.6</ele>
        <time>2020-03-02T17:52:06Z</time>
      </trkpt>
      <trkpt lat="56.892122026309" lon="14.830516106104">
        <ele>185.4</ele>
        <time>2020-03-02T17:52:09Z</time>
      </trkpt>
      <trkpt lat="56.892044745191" lon="14.830437400063">
        <ele>183.8</ele>
        <time>2020-03-02T17:52:14Z</time>
      </trkpt>
      <trkpt lat="56.892038207309" lon="14.830423653747">
        <ele>183.6</ele>
        <time>2020-03-02T17:52:15Z</time>
      </trkpt>
      <trkpt lat="56.892017839292" lon="14.830346204991">
        <ele>182.8</ele>
        <time>2020-03-02T17:52:17Z</time>
      </trkpt>
      <trkpt lat="56.892004931166" lon="14.830309240812">
        <ele>182.6</ele>
        <time>2020-03-02T17:52:18Z</time>
      </trkpt>
      <trkpt lat="56.891961932019" lon="14.830199018827">
        <ele>181.6</ele>
        <time>2020-03-02T17:52:21Z</time>
      </trkpt>
      <trkpt lat="56.891882387788" lon="14.82998838168">
        <ele>180</ele>
        <time>2020-03-02T17:52:27Z</time>
      </trkpt>
      <trkpt lat="56.891846764713" lon="14.829865754483">
        <ele>179</ele>
        <time>2020-03-02T17:52:30Z</time>
      </trkpt>
      <trkpt lat="56.891809632896" lon="14.829786294071">
        <ele>177.8</ele>
        <time>2020-03-02T17:52:33Z</time>
      </trkpt>
      <trkpt lat="56.891786331214" lon="14.829727117857">
        <ele>177.4</ele>
        <time>2020-03-02T17:52:35Z</time>
      </trkpt>
      <trkpt lat="56.891776105296" lon="14.829662241951">
        <ele>176.4</ele>
        <time>2020-03-02T17:52:37Z</time>
      </trkpt>
      <trkpt lat="56.891752971252" lon="14.829598958606">
        <ele>174.8</ele>
        <time>2020-03-02T17:52:39Z</time>
      </trkpt>
      <trkpt lat="56.891745762818" lon="14.829553780165">
        <ele>174.2</ele>
        <time>2020-03-02T17:52:40Z</time>
      </trkpt>
      <trkpt lat="56.891736710366" lon="14.829516732167">
        <ele>173.6</ele>
        <time>2020-03-02T17:52:41Z</time>
      </trkpt>
      <trkpt lat="56.891689687907" lon="14.82946954207">
        <ele>172.6</ele>
        <time>2020-03-02T17:52:44Z</time>
      </trkpt>
      <trkpt lat="56.891646185846" lon="14.829391255124">
        <ele>171.6</ele>
        <time>2020-03-02T17:52:47Z</time>
      </trkpt>
      <trkpt lat="56.891640402335" lon="14.829306765572">
        <ele>170.2</ele>
        <time>2020-03-02T17:52:50Z</time>
      </trkpt>
      <trkpt lat="56.891637301032" lon="14.82922479059">
        <ele>169.8</ele>
        <time>2020-03-02T17:52:52Z</time>
      </trkpt>
      <trkpt lat="56.891600336853" lon="14.829144827264">
        <ele>169</ele>
        <time>2020-03-02T17:52:55Z</time>
      </trkpt>
      <trkpt lat="56.891577621904" lon="14.829102498669">
        <ele>167.8</ele>
        <time>2020-03-02T17:52:58Z</time>
      </trkpt>
      <trkpt lat="56.891562366846" lon="14.829048519233">
        <ele>166.4</ele>
        <time>2020-03-02T17:53:01Z</time>
      </trkpt>
      <trkpt lat="56.8915259894" lon="14.828992109046">
        <ele>165.2</ele>
        <time>2020-03-02T17:53:05Z</time>
      </trkpt>
      <trkpt lat="56.891487600298" lon="14.828992444322">
        <ele>164.8</ele>
        <time>2020-03-02T17:53:07Z</time>
      </trkpt>
      <trkpt lat="56.891451977223" lon="14.828998311652">
        <ele>164</ele>
        <time>2020-03-02T17:53:09Z</time>
      </trkpt>
      <trkpt lat="56.891269084165" lon="14.829014740176">
        <ele>164.2</ele>
        <time>2020-03-02T17:53:17Z</time>
      </trkpt>
      <trkpt lat="56.891078731216" lon="14.829030749605">
        <ele>164</ele>
        <time>2020-03-02T17:53:25Z</time>
      </trkpt>
      <trkpt lat="56.890870189544" lon="14.829005436267">
        <ele>164</ele>
        <time>2020-03-02T17:53:32Z</time>
      </trkpt>
      <trkpt lat="56.890678327853" lon="14.828893454083">
        <ele>164</ele>
        <time>2020-03-02T17:53:40Z</time>
      </trkpt>
      <trkpt lat="56.890560143063" lon="14.828770826886">
        <ele>164</ele>
        <time>2020-03-02T17:53:45Z</time>
      </trkpt>
      <trkpt lat="56.890425529749" lon="14.828497828403">
        <ele>164.8</ele>
        <time>2020-03-02T17:53:52Z</time>
      </trkpt>
      <trkpt lat="56.890380518946" lon="14.828414344679">
        <ele>164.8</ele>
        <time>2020-03-02T17:53:54Z</time>
      </trkpt>
      <trkpt lat="56.890354870332" lon="14.828074710091">
        <ele>163.8</ele>
        <time>2020-03-02T17:54:01Z</time>
      </trkpt>
      <trkpt lat="56.890309859529" lon="14.827711941459">
        <ele>163.6</ele>
        <time>2020-03-02T17:54:05Z</time>
      </trkpt>
      <trkpt lat="56.890287312218" lon="14.827370127577">
        <ele>163</ele>
        <time>2020-03-02T17:54:11Z</time>
      </trkpt>
      <trkpt lat="56.890287479856" lon="14.827322350747">
        <ele>163</ele>
        <time>2020-03-02T17:54:12Z</time>
      </trkpt>
      <trkpt lat="56.890290916435" lon="14.826969724214">
        <ele>163.2</ele>
        <time>2020-03-02T17:54:20Z</time>
      </trkpt>
      <trkpt lat="56.890296616127" lon="14.826629670531">
        <ele>163.4</ele>
        <time>2020-03-02T17:54:26Z</time>
      </trkpt>
      <trkpt lat="56.890287647494" lon="14.826299423671">
        <ele>163.6</ele>
        <time>2020-03-02T17:54:31Z</time>
      </trkpt>
      <trkpt lat="56.890334334677" lon="14.825948808794">
        <ele>163.8</ele>
        <time>2020-03-02T17:54:37Z</time>
      </trkpt>
      <trkpt lat="56.890424021007" lon="14.825631218603">
        <ele>163.8</ele>
        <time>2020-03-02T17:54:44Z</time>
      </trkpt>
      <trkpt lat="56.890454195847" lon="14.825542370463">
        <ele>164.2</ele>
        <time>2020-03-02T17:54:46Z</time>
      </trkpt>
      <trkpt lat="56.890571710085" lon="14.825267108867">
        <ele>164.4</ele>
        <time>2020-03-02T17:54:52Z</time>
      </trkpt>
      <trkpt lat="56.890704814657" lon="14.825030990744">
        <ele>164.4</ele>
        <time>2020-03-02T17:54:58Z</time>
      </trkpt>
      <trkpt lat="56.890771283124" lon="14.824787161273">
        <ele>165.2</ele>
        <time>2020-03-02T17:55:05Z</time>
      </trkpt>
      <trkpt lat="56.890825011103" lon="14.824671826329">
        <ele>166.4</ele>
        <time>2020-03-02T17:55:10Z</time>
      </trkpt>
      <trkpt lat="56.890871530648" lon="14.82458708532">
        <ele>167.6</ele>
        <time>2020-03-02T17:55:13Z</time>
      </trkpt>
      <trkpt lat="56.890942692979" lon="14.824463536114">
        <ele>168.8</ele>
        <time>2020-03-02T17:55:17Z</time>
      </trkpt>
      <trkpt lat="56.891052747326" lon="14.824192549287">
        <ele>168.6</ele>
        <time>2020-03-02T17:55:23Z</time>
      </trkpt>
      <trkpt lat="56.891162801673" lon="14.823883927729">
        <ele>168.4</ele>
        <time>2020-03-02T17:55:29Z</time>
      </trkpt>
      <trkpt lat="56.891217116385" lon="14.823795163408">
        <ele>168</ele>
        <time>2020-03-02T17:55:32Z</time>
      </trkpt>
      <trkpt lat="56.891155257963" lon="14.824066988425">
        <ele>168.2</ele>
        <time>2020-03-02T17:57:47Z</time>
      </trkpt>
      <trkpt lat="56.891117539413" lon="14.824193303658">
        <ele>170</ele>
        <time>2020-03-02T17:57:51Z</time>
      </trkpt>
      <trkpt lat="56.891090465876" lon="14.824271255328">
        <ele>169</ele>
        <time>2020-03-02T17:57:53Z</time>
      </trkpt>
      <trkpt lat="56.890963983005" lon="14.824525981269">
        <ele>169</ele>
        <time>2020-03-02T17:58:00Z</time>
      </trkpt>
      <trkpt lat="56.890850156803" lon="14.824727398326">
        <ele>167.8</ele>
        <time>2020-03-02T17:58:05Z</time>
      </trkpt>
      <trkpt lat="56.890779665024" lon="14.824953458169">
        <ele>166.4</ele>
        <time>2020-03-02T17:58:09Z</time>
      </trkpt>
      <trkpt lat="56.890687715581" lon="14.825164430592">
        <ele>165.2</ele>
        <time>2020-03-02T17:58:13Z</time>
      </trkpt>
      <trkpt lat="56.890561987081" lon="14.825411193728">
        <ele>164.8</ele>
        <time>2020-03-02T17:58:19Z</time>
      </trkpt>
      <trkpt lat="56.890454112028" lon="14.825702213296">
        <ele>164.8</ele>
        <time>2020-03-02T17:58:25Z</time>
      </trkpt>
      <trkpt lat="56.890403150076" lon="14.825906731656">
        <ele>164.2</ele>
        <time>2020-03-02T17:58:28Z</time>
      </trkpt>
      <trkpt lat="56.890328970261" lon="14.826246533882">
        <ele>163.8</ele>
        <time>2020-03-02T17:58:34Z</time>
      </trkpt>
      <trkpt lat="56.89027457173" lon="14.826611230351">
        <ele>164</ele>
        <time>2020-03-02T17:58:41Z</time>
      </trkpt>
      <trkpt lat="56.890237942827" lon="14.826949775292">
        <ele>163.6</ele>
        <time>2020-03-02T17:58:48Z</time>
      </trkpt>
      <trkpt lat="56.890230063841" lon="14.827109115211">
        <ele>163.2</ele>
        <time>2020-03-02T17:58:53Z</time>
      </trkpt>
      <trkpt lat="56.890225286158" lon="14.827196622247">
        <ele>163.2</ele>
        <time>2020-03-02T17:58:56Z</time>
      </trkpt>
      <trkpt lat="56.890253114066" lon="14.827298546151">
        <ele>163</ele>
        <time>2020-03-02T17:58:59Z</time>
      </trkpt>
      <trkpt lat="56.890228638918" lon="14.827665924828">
        <ele>163.2</ele>
        <time>2020-03-02T17:59:05Z</time>
      </trkpt>
      <trkpt lat="56.890222184855" lon="14.827793413527">
        <ele>163.4</ele>
        <time>2020-03-02T17:59:09Z</time>
      </trkpt>
      <trkpt lat="56.890243223424" lon="14.828144782775">
        <ele>163.6</ele>
        <time>2020-03-02T17:59:14Z</time>
      </trkpt>
      <trkpt lat="56.890226040529" lon="14.828268499619">
        <ele>164.2</ele>
        <time>2020-03-02T17:59:17Z</time>
      </trkpt>
      <trkpt lat="56.890222436312" lon="14.828305212341">
        <ele>164.4</ele>
        <time>2020-03-02T17:59:22Z</time>
      </trkpt>
      <trkpt lat="56.890156638397" lon="14.828396994146">
        <ele>164.4</ele>
        <time>2020-03-02T18:02:26Z</time>
      </trkpt>
      <trkpt lat="56.890194524585" lon="14.828487351028">
        <ele>165.8</ele>
        <time>2020-03-02T18:02:29Z</time>
      </trkpt>
      <trkpt lat="56.890230482936" lon="14.828595226081">
        <ele>164.4</ele>
        <time>2020-03-02T18:02:32Z</time>
      </trkpt>
      <trkpt lat="56.890298795421" lon="14.82893645323">
        <ele>164.4</ele>
        <time>2020-03-02T18:02:42Z</time>
      </trkpt>
      <trkpt lat="56.890309859529" lon="14.828980542024">
        <ele>164.4</ele>
        <time>2020-03-02T18:02:43Z</time>
      </trkpt>
      <trkpt lat="56.890338441808" lon="14.829127141455">
        <ele>165.8</ele>
        <time>2020-03-02T18:02:47Z</time>
      </trkpt>
      <trkpt lat="56.890348080993" lon="14.829300395328">
        <ele>167.4</ele>
        <time>2020-03-02T18:02:50Z</time>
      </trkpt>
      <trkpt lat="56.890370209209" lon="14.829443139085">
        <ele>168.4</ele>
        <time>2020-03-02T18:02:54Z</time>
      </trkpt>
      <trkpt lat="56.890469953819" lon="14.829612621103">
        <ele>169.4</ele>
        <time>2020-03-02T18:03:00Z</time>
      </trkpt>
      <trkpt lat="56.890497278813" lon="14.829614968035">
        <ele>169.8</ele>
        <time>2020-03-02T18:03:01Z</time>
      </trkpt>
      <trkpt lat="56.89060481859" lon="14.829895677866">
        <ele>170</ele>
        <time>2020-03-02T18:03:08Z</time>
      </trkpt>
      <trkpt lat="56.890707832141" lon="14.83004454041">
        <ele>171</ele>
        <time>2020-03-02T18:03:12Z</time>
      </trkpt>
      <trkpt lat="56.890809420769" lon="14.830195498429">
        <ele>172.2</ele>
        <time>2020-03-02T18:03:17Z</time>
      </trkpt>
      <trkpt lat="56.890857700513" lon="14.830274791203">
        <ele>173.4</ele>
        <time>2020-03-02T18:03:20Z</time>
      </trkpt>
      <trkpt lat="56.890913607786" lon="14.830357017642">
        <ele>174.6</ele>
        <time>2020-03-02T18:03:23Z</time>
      </trkpt>
      <trkpt lat="56.890997510605" lon="14.830501521598">
        <ele>175.6</ele>
        <time>2020-03-02T18:03:27Z</time>
      </trkpt>
      <trkpt lat="56.891115360119" lon="14.830739651377">
        <ele>176.8</ele>
        <time>2020-03-02T18:03:33Z</time>
      </trkpt>
      <trkpt lat="56.891191300133" lon="14.831049362582">
        <ele>177.4</ele>
        <time>2020-03-02T18:03:39Z</time>
      </trkpt>
      <trkpt lat="56.891224492457" lon="14.831407772626">
        <ele>176.8</ele>
        <time>2020-03-02T18:03:47Z</time>
      </trkpt>
      <trkpt lat="56.891182080043" lon="14.831749670327">
        <ele>176.4</ele>
        <time>2020-03-02T18:03:54Z</time>
      </trkpt>
      <trkpt lat="56.891175793618" lon="14.831964163148">
        <ele>176</ele>
        <time>2020-03-02T18:03:59Z</time>
      </trkpt>
      <trkpt lat="56.891201274594" lon="14.832346713064">
        <ele>176.8</ele>
        <time>2020-03-02T18:04:07Z</time>
      </trkpt>
      <trkpt lat="56.891195239626" lon="14.832692801715">
        <ele>177</ele>
        <time>2020-03-02T18:04:15Z</time>
      </trkpt>
      <trkpt lat="56.891192305961" lon="14.832769915195">
        <ele>178</ele>
        <time>2020-03-02T18:04:17Z</time>
      </trkpt>
      <trkpt lat="56.891187947373" lon="14.832815680369">
        <ele>179.2</ele>
        <time>2020-03-02T18:04:19Z</time>
      </trkpt>
      <trkpt lat="56.891192976513" lon="14.832884831044">
        <ele>180</ele>
        <time>2020-03-02T18:04:21Z</time>
      </trkpt>
      <trkpt lat="56.891193144151" lon="14.832919113015">
        <ele>180.2</ele>
        <time>2020-03-02T18:04:22Z</time>
      </trkpt>
      <trkpt lat="56.891182750595" lon="14.833033190674">
        <ele>181.4</ele>
        <time>2020-03-02T18:04:25Z</time>
      </trkpt>
      <trkpt lat="56.89116640589" lon="14.833113154">
        <ele>183</ele>
        <time>2020-03-02T18:04:28Z</time>
      </trkpt>
      <trkpt lat="56.891156515248" lon="14.833165457056">
        <ele>184.2</ele>
        <time>2020-03-02T18:04:30Z</time>
      </trkpt>
      <trkpt lat="56.891159029818" lon="14.833205271081">
        <ele>184.4</ele>
        <time>2020-03-02T18:04:31Z</time>
      </trkpt>
      <trkpt lat="56.891170680659" lon="14.833291772289">
        <ele>184.8</ele>
        <time>2020-03-02T18:04:33Z</time>
      </trkpt>
      <trkpt lat="56.891214853272" lon="14.833353630711">
        <ele>184.6</ele>
        <time>2020-03-02T18:04:37Z</time>
      </trkpt>
      <trkpt lat="56.891263384473" lon="14.833354133625">
        <ele>184.2</ele>
        <time>2020-03-02T18:04:40Z</time>
      </trkpt>
      <trkpt lat="56.891325745809" lon="14.833357654023">
        <ele>183.8</ele>
        <time>2020-03-02T18:04:44Z</time>
      </trkpt>
      <trkpt lat="56.891344185989" lon="14.833334100884">
        <ele>182.8</ele>
        <time>2020-03-02T18:04:46Z</time>
      </trkpt>
      <trkpt lat="56.891375785752" lon="14.833331753952">
        <ele>181.8</ele>
        <time>2020-03-02T18:04:48Z</time>
      </trkpt>
      <trkpt lat="56.891407134058" lon="14.833314990152">
        <ele>181.4</ele>
        <time>2020-03-02T18:04:50Z</time>
      </trkpt>
      <trkpt lat="56.891436135432" lon="14.833309458098">
        <ele>181.4</ele>
        <time>2020-03-02T18:04:53Z</time>
      </trkpt>
      <trkpt lat="56.891474943629" lon="14.833344829716">
        <ele>181.8</ele>
        <time>2020-03-02T18:04:56Z</time>
      </trkpt>
      <trkpt lat="56.891560858104" lon="14.83336628738">
        <ele>182.2</ele>
        <time>2020-03-02T18:05:00Z</time>
      </trkpt>
      <trkpt lat="56.891662446732" lon="14.833369891597">
        <ele>181.2</ele>
        <time>2020-03-02T18:05:04Z</time>
      </trkpt>
      <trkpt lat="56.891694214133" lon="14.833393612374">
        <ele>180.8</ele>
        <time>2020-03-02T18:05:06Z</time>
      </trkpt>
      <trkpt lat="56.891713157227" lon="14.833419680083">
        <ele>180.8</ele>
        <time>2020-03-02T18:05:07Z</time>
      </trkpt>
      <trkpt lat="56.891874760259" lon="14.833657055491">
        <ele>181.2</ele>
        <time>2020-03-02T18:05:13Z</time>
      </trkpt>
      <trkpt lat="56.891936618681" lon="14.833886971008">
        <ele>181.8</ele>
        <time>2020-03-02T18:05:20Z</time>
      </trkpt>
      <trkpt lat="56.891946844599" lon="14.833942207729">
        <ele>182</ele>
        <time>2020-03-02T18:05:22Z</time>
      </trkpt>
      <trkpt lat="56.891940139079" lon="14.834089393893">
        <ele>182.8</ele>
        <time>2020-03-02T18:05:26Z</time>
      </trkpt>
      <trkpt lat="56.891941564002" lon="14.8341441277">
        <ele>184</ele>
        <time>2020-03-02T18:05:28Z</time>
      </trkpt>
      <trkpt lat="56.891950029721" lon="14.834204980294">
        <ele>185.2</ele>
        <time>2020-03-02T18:05:30Z</time>
      </trkpt>
      <trkpt lat="56.891956735241" lon="14.834288380199">
        <ele>186</ele>
        <time>2020-03-02T18:05:33Z</time>
      </trkpt>
      <trkpt lat="56.891956064689" lon="14.834314615546">
        <ele>186.6</ele>
        <time>2020-03-02T18:05:34Z</time>
      </trkpt>
      <trkpt lat="56.891939971441" lon="14.834404218057">
        <ele>187.8</ele>
        <time>2020-03-02T18:05:37Z</time>
      </trkpt>
      <trkpt lat="56.891838215175" lon="14.83455903175">
        <ele>188.8</ele>
        <time>2020-03-02T18:05:44Z</time>
      </trkpt>
      <trkpt lat="56.891813823846" lon="14.834596834119">
        <ele>189</ele>
        <time>2020-03-02T18:05:46Z</time>
      </trkpt>
      <trkpt lat="56.89165758523" lon="14.834763633929">
        <ele>189</ele>
        <time>2020-03-02T18:05:53Z</time>
      </trkpt>
      <trkpt lat="56.891509141781" lon="14.835011738169">
        <ele>187.8</ele>
        <time>2020-03-02T18:06:00Z</time>
      </trkpt>
      <trkpt lat="56.891490114868" lon="14.83506529851">
        <ele>187.6</ele>
        <time>2020-03-02T18:06:01Z</time>
      </trkpt>
      <trkpt lat="56.891373522639" lon="14.83528993343">
        <ele>186.6</ele>
        <time>2020-03-02T18:06:07Z</time>
      </trkpt>
      <trkpt lat="56.891240334248" lon="14.835540384602">
        <ele>185.6</ele>
        <time>2020-03-02T18:06:15Z</time>
      </trkpt>
      <trkpt lat="56.891224073362" lon="14.835568044872">
        <ele>185.2</ele>
        <time>2020-03-02T18:06:16Z</time>
      </trkpt>
      <trkpt lat="56.891145367321" lon="14.835699892159">
        <ele>184</ele>
        <time>2020-03-02T18:06:20Z</time>
      </trkpt>
      <trkpt lat="56.891118042327" lon="14.835743310401">
        <ele>184</ele>
        <time>2020-03-02T18:06:21Z</time>
      </trkpt>
      <trkpt lat="56.891075294637" lon="14.83585319711">
        <ele>184</ele>
        <time>2020-03-02T18:06:24Z</time>
      </trkpt>
      <trkpt lat="56.89103816282" lon="14.835980685809">
        <ele>185</ele>
        <time>2020-03-02T18:06:27Z</time>
      </trkpt>
      <trkpt lat="56.890942944436" lon="14.836230131153">
        <ele>183.8</ele>
        <time>2020-03-02T18:06:33Z</time>
      </trkpt>
      <trkpt lat="56.890896592529" lon="14.836334904903">
        <ele>182.2</ele>
        <time>2020-03-02T18:06:36Z</time>
      </trkpt>
      <trkpt lat="56.890812270615" lon="14.836485862922">
        <ele>181</ele>
        <time>2020-03-02T18:06:40Z</time>
      </trkpt>
      <trkpt lat="56.890703557372" lon="14.836809068986">
        <ele>180.4</ele>
        <time>2020-03-02T18:06:47Z</time>
      </trkpt>
      <trkpt lat="56.890605405323" lon="14.83708868917">
        <ele>181.2</ele>
        <time>2020-03-02T18:06:53Z</time>
      </trkpt>
      <trkpt lat="56.890495602433" lon="14.837398065099">
        <ele>180</ele>
        <time>2020-03-02T18:07:01Z</time>
      </trkpt>
      <trkpt lat="56.890481017927" lon="14.837495630415">
        <ele>179.8</ele>
        <time>2020-03-02T18:07:03Z</time>
      </trkpt>
      <trkpt lat="56.89044304792" lon="14.837517758631">
        <ele>179</ele>
        <time>2020-03-02T18:07:05Z</time>
      </trkpt>
      <trkpt lat="56.890419075686" lon="14.837510801654">
        <ele>178.8</ele>
        <time>2020-03-02T18:07:06Z</time>
      </trkpt>
      <trkpt lat="56.890228052185" lon="14.837395299072">
        <ele>178.8</ele>
        <time>2020-03-02T18:07:14Z</time>
      </trkpt>
      <trkpt lat="56.890081285116" lon="14.837357999617">
        <ele>179.2</ele>
        <time>2020-03-02T18:07:20Z</time>
      </trkpt>
      <trkpt lat="56.889986988741" lon="14.837321286895">
        <ele>180</ele>
        <time>2020-03-02T18:07:23Z</time>
      </trkpt>
      <trkpt lat="56.88991750279" lon="14.837256159532">
        <ele>180.6</ele>
        <time>2020-03-02T18:07:26Z</time>
      </trkpt>
      <trkpt lat="56.889790433186" lon="14.837008474387">
        <ele>180.6</ele>
        <time>2020-03-02T18:07:32Z</time>
      </trkpt>
      <trkpt lat="56.889654646406" lon="14.836858019282">
        <ele>181</ele>
        <time>2020-03-02T18:07:39Z</time>
      </trkpt>
      <trkpt lat="56.889579963677" lon="14.836763219993">
        <ele>182.4</ele>
        <time>2020-03-02T18:07:43Z</time>
      </trkpt>
      <trkpt lat="56.889543921507" lon="14.83667210874">
        <ele>183</ele>
        <time>2020-03-02T18:07:46Z</time>
      </trkpt>
      <trkpt lat="56.889509136622" lon="14.836632629991">
        <ele>183.6</ele>
        <time>2020-03-02T18:07:48Z</time>
      </trkpt>
      <trkpt lat="56.889453313168" lon="14.836578985831">
        <ele>184.8</ele>
        <time>2020-03-02T18:07:51Z</time>
      </trkpt>
      <trkpt lat="56.889441243232" lon="14.836554929778">
        <ele>185.4</ele>
        <time>2020-03-02T18:07:52Z</time>
      </trkpt>
      <trkpt lat="56.889422467776" lon="14.836535232313">
        <ele>186</ele>
        <time>2020-03-02T18:07:53Z</time>
      </trkpt>
      <trkpt lat="56.889372595471" lon="14.836484018904">
        <ele>187</ele>
        <time>2020-03-02T18:07:56Z</time>
      </trkpt>
      <trkpt lat="56.889190372965" lon="14.836336665102">
        <ele>186.8</ele>
        <time>2020-03-02T18:08:05Z</time>
      </trkpt>
      <trkpt lat="56.889075373297" lon="14.836276399241">
        <ele>185.6</ele>
        <time>2020-03-02T18:08:09Z</time>
      </trkpt>
      <trkpt lat="56.889017622006" lon="14.836266592418">
        <ele>184.2</ele>
        <time>2020-03-02T18:08:11Z</time>
      </trkpt>
      <trkpt lat="56.888958781068" lon="14.836270196635">
        <ele>183</ele>
        <time>2020-03-02T18:08:13Z</time>
      </trkpt>
      <trkpt lat="56.888777815847" lon="14.83624966098">
        <ele>182.2</ele>
        <time>2020-03-02T18:08:19Z</time>
      </trkpt>
      <trkpt lat="56.888748646835" lon="14.836250750627">
        <ele>182</ele>
        <time>2020-03-02T18:08:20Z</time>
      </trkpt>
      <trkpt lat="56.888646639112" lon="14.836287714806">
        <ele>180.8</ele>
        <time>2020-03-02T18:08:24Z</time>
      </trkpt>
      <trkpt lat="56.88853197472" lon="14.83635778749">
        <ele>179.4</ele>
        <time>2020-03-02T18:08:28Z</time>
      </trkpt>
      <trkpt lat="56.888469781022" lon="14.836358877137">
        <ele>178.4</ele>
        <time>2020-03-02T18:08:30Z</time>
      </trkpt>
      <trkpt lat="56.888350003671" lon="14.836310178298">
        <ele>177.2</ele>
        <time>2020-03-02T18:08:34Z</time>
      </trkpt>
      <trkpt lat="56.888275907675" lon="14.83629576143">
        <ele>176.2</ele>
        <time>2020-03-02T18:08:37Z</time>
      </trkpt>
      <trkpt lat="56.888222934067" lon="14.836269609902">
        <ele>176</ele>
        <time>2020-03-02T18:08:39Z</time>
      </trkpt>
      <trkpt lat="56.88808521945" lon="14.836207835299">
        <ele>175</ele>
        <time>2020-03-02T18:08:43Z</time>
      </trkpt>
      <trkpt lat="56.887994611111" lon="14.836168608007">
        <ele>175.2</ele>
        <time>2020-03-02T18:08:46Z</time>
      </trkpt>
      <trkpt lat="56.887813897347" lon="14.836036006349">
        <ele>175.4</ele>
        <time>2020-03-02T18:08:52Z</time>
      </trkpt>
      <trkpt lat="56.887661765862" lon="14.835799133855">
        <ele>175.4</ele>
        <time>2020-03-02T18:08:59Z</time>
      </trkpt>
      <trkpt lat="56.88754374871" lon="14.835553292728">
        <ele>175</ele>
        <time>2020-03-02T18:09:05Z</time>
      </trkpt>
      <trkpt lat="56.887370327199" lon="14.835430414074">
        <ele>174.2</ele>
        <time>2020-03-02T18:09:11Z</time>
      </trkpt>
      <trkpt lat="56.887224985053" lon="14.835423540916">
        <ele>174</ele>
        <time>2020-03-02T18:09:16Z</time>
      </trkpt>
      <trkpt lat="56.887200677543" lon="14.835401747976">
        <ele>174</ele>
        <time>2020-03-02T18:09:18Z</time>
      </trkpt>
      <trkpt lat="56.887102274037" lon="14.835270152146">
        <ele>176.4</ele>
        <time>2020-03-02T18:09:26Z</time>
      </trkpt>
      <trkpt lat="56.887065058401" lon="14.835213322864">
        <ele>177.8</ele>
        <time>2020-03-02T18:09:29Z</time>
      </trkpt>
      <trkpt lat="56.88705424575" lon="14.835168060604">
        <ele>178.6</ele>
        <time>2020-03-02T18:09:31Z</time>
      </trkpt>
      <trkpt lat="56.887057514691" lon="14.835143166361">
        <ele>179</ele>
        <time>2020-03-02T18:09:32Z</time>
      </trkpt>
      <trkpt lat="56.887074027034" lon="14.835091198581">
        <ele>180.2</ele>
        <time>2020-03-02T18:09:34Z</time>
      </trkpt>
      <trkpt lat="56.887092467214" lon="14.835041158638">
        <ele>181.2</ele>
        <time>2020-03-02T18:09:36Z</time>
      </trkpt>
      <trkpt lat="56.887104453331" lon="14.835045768683">
        <ele>181.6</ele>
        <time>2020-03-02T18:09:37Z</time>
      </trkpt>
      <trkpt lat="56.887219201542" lon="14.835070746745">
        <ele>179.8</ele>
        <time>2020-03-02T18:09:43Z</time>
      </trkpt>
      <trkpt lat="56.887233702229" lon="14.835053647669">
        <ele>179.2</ele>
        <time>2020-03-02T18:09:44Z</time>
      </trkpt>
      <trkpt lat="56.887275360272" lon="14.835026071218">
        <ele>179</ele>
        <time>2020-03-02T18:09:46Z</time>
      </trkpt>
      <trkpt lat="56.887312240632" lon="14.835017270223">
        <ele>178.6</ele>
        <time>2020-03-02T18:09:48Z</time>
      </trkpt>
      <trkpt lat="56.887325148758" lon="14.835019868612">
        <ele>178.4</ele>
        <time>2020-03-02T18:09:49Z</time>
      </trkpt>
      <trkpt lat="56.887350462096" lon="14.835015929119">
        <ele>177.2</ele>
        <time>2020-03-02T18:09:51Z</time>
      </trkpt>
      <trkpt lat="56.887363286403" lon="14.835009894151">
        <ele>176.8</ele>
        <time>2020-03-02T18:09:52Z</time>
      </trkpt>
      <trkpt lat="56.887389437931" lon="14.834992962713">
        <ele>176</ele>
        <time>2020-03-02T18:09:54Z</time>
      </trkpt>
      <trkpt lat="56.887409470672" lon="14.834982988252">
        <ele>175.6</ele>
        <time>2020-03-02T18:09:55Z</time>
      </trkpt>
      <trkpt lat="56.887445345204" lon="14.834944766788">
        <ele>175.2</ele>
        <time>2020-03-02T18:09:57Z</time>
      </trkpt>
      <trkpt lat="56.887456409312" lon="14.834911574464">
        <ele>174.8</ele>
        <time>2020-03-02T18:09:58Z</time>
      </trkpt>
      <trkpt lat="56.887474095121" lon="14.834872933905">
        <ele>174.4</ele>
        <time>2020-03-02T18:09:59Z</time>
      </trkpt>
      <trkpt lat="56.88746998799" lon="14.834798921728">
        <ele>173.8</ele>
        <time>2020-03-02T18:10:01Z</time>
      </trkpt>
      <trkpt lat="56.887431263612" lon="14.834688532105">
        <ele>172.2</ele>
        <time>2020-03-02T18:10:04Z</time>
      </trkpt>
      <trkpt lat="56.887399496211" lon="14.834540926846">
        <ele>171</ele>
        <time>2020-03-02T18:10:07Z</time>
      </trkpt>
      <trkpt lat="56.887323640016" lon="14.834336157029">
        <ele>170.2</ele>
        <time>2020-03-02T18:10:13Z</time>
      </trkpt>
      <trkpt lat="56.88730821732" lon="14.83418016987">
        <ele>170</ele>
        <time>2020-03-02T18:10:16Z</time>
      </trkpt>
      <trkpt lat="56.887227331985" lon="14.833986715618">
        <ele>171</ele>
        <time>2020-03-02T18:10:21Z</time>
      </trkpt>
      <trkpt lat="56.887193133833" lon="14.833921588255">
        <ele>172.4</ele>
        <time>2020-03-02T18:10:24Z</time>
      </trkpt>
      <trkpt lat="56.887165389744" lon="14.833834751771">
        <ele>173.6</ele>
        <time>2020-03-02T18:10:27Z</time>
      </trkpt>
      <trkpt lat="56.887158851862" lon="14.833814970487">
        <ele>173.8</ele>
        <time>2020-03-02T18:10:28Z</time>
      </trkpt>
      <trkpt lat="56.887146111374" lon="14.833723188682">
        <ele>173.8</ele>
        <time>2020-03-02T18:10:30Z</time>
      </trkpt>
      <trkpt lat="56.887127503556" lon="14.833628724669">
        <ele>173.6</ele>
        <time>2020-03-02T18:10:33Z</time>
      </trkpt>
      <trkpt lat="56.887049132791" lon="14.833502157979">
        <ele>172</ele>
        <time>2020-03-02T18:10:37Z</time>
      </trkpt>
      <trkpt lat="56.887010995146" lon="14.83345765009">
        <ele>170.8</ele>
        <time>2020-03-02T18:10:39Z</time>
      </trkpt>
      <trkpt lat="56.887028178041" lon="14.833379363144">
        <ele>170.4</ele>
        <time>2020-03-02T18:10:42Z</time>
      </trkpt>
      <trkpt lat="56.887021388702" lon="14.833148777075">
        <ele>171</ele>
        <time>2020-03-02T18:10:47Z</time>
      </trkpt>
      <trkpt lat="56.887140327863" lon="14.832881897379">
        <ele>170.6</ele>
        <time>2020-03-02T18:10:58Z</time>
      </trkpt>
      <trkpt lat="56.887147787754" lon="14.832865301217">
        <ele>170.6</ele>
        <time>2020-03-02T18:10:59Z</time>
      </trkpt>
      <trkpt lat="56.887357838168" lon="14.832789696479">
        <ele>171</ele>
        <time>2020-03-02T18:11:08Z</time>
      </trkpt>
      <trkpt lat="56.887555651008" lon="14.832726999867">
        <ele>171.2</ele>
        <time>2020-03-02T18:11:15Z</time>
      </trkpt>
      <trkpt lat="56.887712392538" lon="14.832553159261">
        <ele>170.8</ele>
        <time>2020-03-02T18:11:21Z</time>
      </trkpt>
      <trkpt lat="56.887880868728" lon="14.832390969496">
        <ele>170.2</ele>
        <time>2020-03-02T18:11:28Z</time>
      </trkpt>
      <trkpt lat="56.888010117626" lon="14.832247219911">
        <ele>169.6</ele>
        <time>2020-03-02T18:11:33Z</time>
      </trkpt>
      <trkpt lat="56.888054960791" lon="14.832171447535">
        <ele>169.2</ele>
        <time>2020-03-02T18:11:35Z</time>
      </trkpt>
      <trkpt lat="56.888096535015" lon="14.831992074875">
        <ele>168.4</ele>
        <time>2020-03-02T18:11:38Z</time>
      </trkpt>
      <trkpt lat="56.888129811158" lon="14.831651602097">
        <ele>167.2</ele>
        <time>2020-03-02T18:11:44Z</time>
      </trkpt>
      <trkpt lat="56.88814892189" lon="14.831499302974">
        <ele>166</ele>
        <time>2020-03-02T18:11:47Z</time>
      </trkpt>
      <trkpt lat="56.888179180549" lon="14.831264609774">
        <ele>165</ele>
        <time>2020-03-02T18:11:51Z</time>
      </trkpt>
      <trkpt lat="56.888200135299" lon="14.831109628443">
        <ele>163.6</ele>
        <time>2020-03-02T18:11:54Z</time>
      </trkpt>
      <trkpt lat="56.888243218265" lon="14.831118513257">
        <ele>162.6</ele>
        <time>2020-03-02T18:11:57Z</time>
      </trkpt>
      <trkpt lat="56.888325360885" lon="14.831205601198">
        <ele>163.8</ele>
        <time>2020-03-02T18:12:03Z</time>
      </trkpt>
      <trkpt lat="56.888348075834" lon="14.831223622283">
        <ele>165</ele>
        <time>2020-03-02T18:12:05Z</time>
      </trkpt>
      <trkpt lat="56.888358385571" lon="14.83124231392">
        <ele>165.4</ele>
        <time>2020-03-02T18:12:06Z</time>
      </trkpt>
      <trkpt lat="56.888442456028" lon="14.831366114583">
        <ele>166.2</ele>
        <time>2020-03-02T18:12:12Z</time>
      </trkpt>
      <trkpt lat="56.888512863988" lon="14.831443060425">
        <ele>167.2</ele>
        <time>2020-03-02T18:12:15Z</time>
      </trkpt>
      <trkpt lat="56.888551085452" lon="14.831530567461">
        <ele>168.2</ele>
        <time>2020-03-02T18:12:18Z</time>
      </trkpt>
      <trkpt lat="56.888612105684" lon="14.831621343438">
        <ele>169.6</ele>
        <time>2020-03-02T18:12:22Z</time>
      </trkpt>
      <trkpt lat="56.888660636885" lon="14.831730308138">
        <ele>170.6</ele>
        <time>2020-03-02T18:12:26Z</time>
      </trkpt>
      <trkpt lat="56.888673042097" lon="14.831775570398">
        <ele>170.6</ele>
        <time>2020-03-02T18:12:27Z</time>
      </trkpt>
      <trkpt lat="56.888761890237" lon="14.832004563906">
        <ele>170.6</ele>
        <time>2020-03-02T18:12:33Z</time>
      </trkpt>
      <trkpt lat="56.888924499097" lon="14.832238502735">
        <ele>171.6</ele>
        <time>2020-03-02T18:12:40Z</time>
      </trkpt>
      <trkpt lat="56.888942017268" lon="14.832266749738">
        <ele>171.8</ele>
        <time>2020-03-02T18:12:41Z</time>
      </trkpt>
      <trkpt lat="56.889005384432" lon="14.832411505151">
        <ele>172.8</ele>
        <time>2020-03-02T18:12:45Z</time>
      </trkpt>
      <trkpt lat="56.889142847592" lon="14.832623064307">
        <ele>173.4</ele>
        <time>2020-03-02T18:12:51Z</time>
      </trkpt>
      <trkpt lat="56.889314676542" lon="14.832824732821">
        <ele>174</ele>
        <time>2020-03-02T18:12:57Z</time>
      </trkpt>
      <trkpt lat="56.889397154438" lon="14.832969907329">
        <ele>175</ele>
        <time>2020-03-02T18:13:01Z</time>
      </trkpt>
      <trkpt lat="56.889474519375" lon="14.83330677589">
        <ele>176</ele>
        <time>2020-03-02T18:13:08Z</time>
      </trkpt>
      <trkpt lat="56.889490277347" lon="14.833420685911">
        <ele>176.2</ele>
        <time>2020-03-02T18:13:11Z</time>
      </trkpt>
      <trkpt lat="56.889498826885" lon="14.833757470653">
        <ele>177</ele>
        <time>2020-03-02T18:13:18Z</time>
      </trkpt>
      <trkpt lat="56.88949673141" lon="14.833881941868">
        <ele>177.2</ele>
        <time>2020-03-02T18:13:21Z</time>
      </trkpt>
      <trkpt lat="56.889494552116" lon="14.834109342815">
        <ele>178.4</ele>
        <time>2020-03-02T18:13:25Z</time>
      </trkpt>
      <trkpt lat="56.889522547662" lon="14.83430506018">
        <ele>178.8</ele>
        <time>2020-03-02T18:13:29Z</time>
      </trkpt>
      <trkpt lat="56.889704770168" lon="14.83427907629">
        <ele>179.2</ele>
        <time>2020-03-02T18:13:39Z</time>
      </trkpt>
      <trkpt lat="56.88972807185" lon="14.834285865629">
        <ele>179.4</ele>
        <time>2020-03-02T18:13:40Z</time>
      </trkpt>
      <trkpt lat="56.889901996275" lon="14.834142870415">
        <ele>180</ele>
        <time>2020-03-02T18:13:48Z</time>
      </trkpt>
      <trkpt lat="56.890009368414" lon="14.834019405028">
        <ele>178.6</ele>
        <time>2020-03-02T18:13:54Z</time>
      </trkpt>
      <trkpt lat="56.890106682273" lon="14.83395469676">
        <ele>180.8</ele>
        <time>2020-03-02T18:14:00Z</time>
      </trkpt>
      <trkpt lat="56.890148507954" lon="14.833928629051">
        <ele>181.6</ele>
        <time>2020-03-02T18:14:03Z</time>
      </trkpt>
      <trkpt lat="56.890322013284" lon="14.833875571624">
        <ele>179.2</ele>
        <time>2020-03-02T18:14:10Z</time>
      </trkpt>
      <trkpt lat="56.890370460666" lon="14.833889569397">
        <ele>178.4</ele>
        <time>2020-03-02T18:14:12Z</time>
      </trkpt>
      <trkpt lat="56.890382362964" lon="14.833886216637">
        <ele>178.2</ele>
        <time>2020-03-02T18:14:13Z</time>
      </trkpt>
      <trkpt lat="56.890548743679" lon="14.834102553476">
        <ele>179.2</ele>
        <time>2020-03-02T18:14:23Z</time>
      </trkpt>
      <trkpt lat="56.8905704528" lon="14.834130968117">
        <ele>179.6</ele>
        <time>2020-03-02T18:14:24Z</time>
      </trkpt>
      <trkpt lat="56.89063918438" lon="14.83421621204">
        <ele>181</ele>
        <time>2020-03-02T18:14:27Z</time>
      </trkpt>
      <trkpt lat="56.890794081892" lon="14.834307910026">
        <ele>182</ele>
        <time>2020-03-02T18:14:32Z</time>
      </trkpt>
      <trkpt lat="56.890963899186" lon="14.834267090173">
        <ele>183.4</ele>
        <time>2020-03-02T18:14:39Z</time>
      </trkpt>
      <trkpt lat="56.891056519181" lon="14.834241022464">
        <ele>184.2</ele>
        <time>2020-03-02T18:14:44Z</time>
      </trkpt>
      <trkpt lat="56.89111276173" lon="14.834260217015">
        <ele>184</ele>
        <time>2020-03-02T18:14:47Z</time>
      </trkpt>
      <trkpt lat="56.891261205179" lon="14.834484265202">
        <ele>184.2</ele>
        <time>2020-03-02T18:14:54Z</time>
      </trkpt>
      <trkpt lat="56.891325745809" lon="14.83454478252">
        <ele>184.6</ele>
        <time>2020-03-02T18:14:57Z</time>
      </trkpt>
      <trkpt lat="56.891405541497" lon="14.834591553522">
        <ele>186</ele>
        <time>2020-03-02T18:15:00Z</time>
      </trkpt>
      <trkpt lat="56.891477206742" lon="14.834644275673">
        <ele>187</ele>
        <time>2020-03-02T18:15:03Z</time>
      </trkpt>
      <trkpt lat="56.891544681037" lon="14.834686771906">
        <ele>188</ele>
        <time>2020-03-02T18:15:06Z</time>
      </trkpt>
      <trkpt lat="56.8917355369" lon="14.834824235066">
        <ele>188</ele>
        <time>2020-03-02T18:15:13Z</time>
      </trkpt>
      <trkpt lat="56.891905605651" lon="14.834960692398">
        <ele>187.4</ele>
        <time>2020-03-02T18:15:19Z</time>
      </trkpt>
      <trkpt lat="56.891927817686" lon="14.834980389863">
        <ele>187</ele>
        <time>2020-03-02T18:15:20Z</time>
      </trkpt>
      <trkpt lat="56.89208673851" lon="14.835149871881">
        <ele>186.4</ele>
        <time>2020-03-02T18:15:27Z</time>
      </trkpt>
      <trkpt lat="56.892272565233" lon="14.835261518789">
        <ele>186.2</ele>
        <time>2020-03-02T18:15:33Z</time>
      </trkpt>
      <trkpt lat="56.892374070042" lon="14.835298063873">
        <ele>186</ele>
        <time>2020-03-02T18:15:37Z</time>
      </trkpt>
      <trkpt lat="56.892461660897" lon="14.835285910118">
        <ele>185</ele>
        <time>2020-03-02T18:15:40Z</time>
      </trkpt>
      <trkpt lat="56.892530895391" lon="14.835255735278">
        <ele>183.8</ele>
        <time>2020-03-02T18:15:43Z</time>
      </trkpt>
      <trkpt lat="56.892578923678" lon="14.835239055297">
        <ele>182.2</ele>
        <time>2020-03-02T18:15:45Z</time>
      </trkpt>
      <trkpt lat="56.892633322209" lon="14.835219693108">
        <ele>180.8</ele>
        <time>2020-03-02T18:15:47Z</time>
      </trkpt>
      <trkpt lat="56.892698701029" lon="14.835208377543">
        <ele>179.4</ele>
        <time>2020-03-02T18:15:49Z</time>
      </trkpt>
      <trkpt lat="56.892777658527" lon="14.835192954847">
        <ele>178</ele>
        <time>2020-03-02T18:15:51Z</time>
      </trkpt>
      <trkpt lat="56.892851754523" lon="14.835179711445">
        <ele>176.6</ele>
        <time>2020-03-02T18:15:53Z</time>
      </trkpt>
      <trkpt lat="56.89300455656" lon="14.835097904101">
        <ele>175.6</ele>
        <time>2020-03-02T18:15:57Z</time>
      </trkpt>
      <trkpt lat="56.893109833224" lon="14.834996902206">
        <ele>174.2</ele>
        <time>2020-03-02T18:16:00Z</time>
      </trkpt>
      <trkpt lat="56.893259031044" lon="14.834718706945">
        <ele>173.8</ele>
        <time>2020-03-02T18:16:06Z</time>
      </trkpt>
      <trkpt lat="56.89333564161" lon="14.834398602184">
        <ele>173</ele>
        <time>2020-03-02T18:16:12Z</time>
      </trkpt>
      <trkpt lat="56.893414515289" lon="14.834092243739">
        <ele>173.2</ele>
        <time>2020-03-02T18:16:18Z</time>
      </trkpt>
      <trkpt lat="56.893534376459" lon="14.833809354614">
        <ele>172.2</ele>
        <time>2020-03-02T18:16:24Z</time>
      </trkpt>
      <trkpt lat="56.893641916236" lon="14.833533673923">
        <ele>172.2</ele>
        <time>2020-03-02T18:16:30Z</time>
      </trkpt>
      <trkpt lat="56.89365080105" lon="14.833479778306">
        <ele>172.2</ele>
        <time>2020-03-02T18:16:31Z</time>
      </trkpt>
      <trkpt lat="56.89365583019" lon="14.833425882689">
        <ele>172</ele>
        <time>2020-03-02T18:16:32Z</time>
      </trkpt>
      <trkpt lat="56.893714922585" lon="14.83308549373">
        <ele>171.8</ele>
        <time>2020-03-02T18:16:39Z</time>
      </trkpt>
      <trkpt lat="56.893877363807" lon="14.832884998682">
        <ele>171.2</ele>
        <time>2020-03-02T18:16:46Z</time>
      </trkpt>
      <trkpt lat="56.893903515335" lon="14.832860691172">
        <ele>170.8</ele>
        <time>2020-03-02T18:16:47Z</time>
      </trkpt>
      <trkpt lat="56.89396596049" lon="14.832787265728">
        <ele>169.8</ele>
        <time>2020-03-02T18:16:50Z</time>
      </trkpt>
      <trkpt lat="56.893981299367" lon="14.832752564662">
        <ele>169.6</ele>
        <time>2020-03-02T18:16:51Z</time>
      </trkpt>
      <trkpt lat="56.893937713487" lon="14.83243924924">
        <ele>171</ele>
        <time>2020-03-02T18:16:58Z</time>
      </trkpt>
      <trkpt lat="56.893889266105" lon="14.832270605412">
        <ele>172.4</ele>
        <time>2020-03-02T18:17:03Z</time>
      </trkpt>
      <trkpt lat="56.893877699083" lon="14.832073044029">
        <ele>173.4</ele>
        <time>2020-03-02T18:17:07Z</time>
      </trkpt>
      <trkpt lat="56.893840148171" lon="14.831901047441">
        <ele>174.4</ele>
        <time>2020-03-02T18:17:11Z</time>
      </trkpt>
      <trkpt lat="56.893745600339" lon="14.831616565755">
        <ele>173.8</ele>
        <time>2020-03-02T18:17:17Z</time>
      </trkpt>
      <trkpt lat="56.893654824362" lon="14.831370724628">
        <ele>173.2</ele>
        <time>2020-03-02T18:17:23Z</time>
      </trkpt>
      <trkpt lat="56.893503698705" lon="14.831193615081">
        <ele>173.8</ele>
        <time>2020-03-02T18:17:30Z</time>
      </trkpt>
      <trkpt lat="56.893377634929" lon="14.830921454788">
        <ele>172.8</ele>
        <time>2020-03-02T18:17:38Z</time>
      </trkpt>
      <trkpt lat="56.893377215834" lon="14.83088943593">
        <ele>172.4</ele>
        <time>2020-03-02T18:17:39Z</time>
      </trkpt>
      <trkpt lat="56.893386603562" lon="14.830857165615">
        <ele>172.2</ele>
        <time>2020-03-02T18:17:40Z</time>
      </trkpt>
      <trkpt lat="56.893389704865" lon="14.830826739318">
        <ele>171.6</ele>
        <time>2020-03-02T18:17:41Z</time>
      </trkpt>
      <trkpt lat="56.893374449807" lon="14.830763288335">
        <ele>170.8</ele>
        <time>2020-03-02T18:17:43Z</time>
      </trkpt>
      <trkpt lat="56.893321476199" lon="14.830454499139">
        <ele>170.8</ele>
        <time>2020-03-02T18:17:50Z</time>
      </trkpt>
      <trkpt lat="56.893287948599" lon="14.830269342968">
        <ele>169.4</ele>
        <time>2020-03-02T18:17:54Z</time>
      </trkpt>
      <trkpt lat="56.893273950826" lon="14.830208322736">
        <ele>168.4</ele>
        <time>2020-03-02T18:17:56Z</time>
      </trkpt>
      <trkpt lat="56.893211254214" lon="14.830134310559">
        <ele>168.2</ele>
        <time>2020-03-02T18:18:01Z</time>
      </trkpt>
      <trkpt lat="56.893176972243" lon="14.830101453511">
        <ele>169.4</ele>
        <time>2020-03-02T18:18:04Z</time>
      </trkpt>
      <trkpt lat="56.893136571485" lon="14.830045797695">
        <ele>170.6</ele>
        <time>2020-03-02T18:18:07Z</time>
      </trkpt>
      <trkpt lat="56.893122070798" lon="14.830022831289">
        <ele>171</ele>
        <time>2020-03-02T18:18:08Z</time>
      </trkpt>
      <trkpt lat="56.893086447723" lon="14.829991231526">
        <ele>171.8</ele>
        <time>2020-03-02T18:18:10Z</time>
      </trkpt>
      <trkpt lat="56.893054177408" lon="14.829958290659">
        <ele>172.4</ele>
        <time>2020-03-02T18:18:12Z</time>
      </trkpt>
      <trkpt lat="56.893038335617" lon="14.829951836596">
        <ele>173</ele>
        <time>2020-03-02T18:18:13Z</time>
      </trkpt>
      <trkpt lat="56.893003969827" lon="14.829940185755">
        <ele>174.2</ele>
        <time>2020-03-02T18:18:15Z</time>
      </trkpt>
      <trkpt lat="56.892930879659" lon="14.829943287058">
        <ele>175.6</ele>
        <time>2020-03-02T18:18:19Z</time>
      </trkpt>
      <trkpt lat="56.892868099228" lon="14.829972372251">
        <ele>176.6</ele>
        <time>2020-03-02T18:18:23Z</time>
      </trkpt>
      <trkpt lat="56.892669112922" lon="14.830027441334">
        <ele>176.6</ele>
        <time>2020-03-02T18:18:32Z</time>
      </trkpt>
      <trkpt lat="56.892617396599" lon="14.830076475449">
        <ele>177.8</ele>
        <time>2020-03-02T18:18:35Z</time>
      </trkpt>
      <trkpt lat="56.892529219011" lon="14.830139339699">
        <ele>178.8</ele>
        <time>2020-03-02T18:18:39Z</time>
      </trkpt>
      <trkpt lat="56.892377422802" lon="14.830259703783">
        <ele>180</ele>
        <time>2020-03-02T18:18:46Z</time>
      </trkpt>
      <trkpt lat="56.892363425029" lon="14.830282502551">
        <ele>180.2</ele>
        <time>2020-03-02T18:18:47Z</time>
      </trkpt>
      <trkpt lat="56.892330819438" lon="14.830333632141">
        <ele>180.2</ele>
        <time>2020-03-02T18:18:49Z</time>
      </trkpt>
      <trkpt lat="56.892297710933" lon="14.830355592719">
        <ele>180.8</ele>
        <time>2020-03-02T18:18:51Z</time>
      </trkpt>
      <trkpt lat="56.89227700764" lon="14.830369925768">
        <ele>181.2</ele>
        <time>2020-03-02T18:18:52Z</time>
      </trkpt>
      <trkpt lat="56.892256304347" lon="14.830379481134">
        <ele>181.6</ele>
        <time>2020-03-02T18:18:53Z</time>
      </trkpt>
      <trkpt lat="56.892212802286" lon="14.830419127521">
        <ele>182.2</ele>
        <time>2020-03-02T18:18:55Z</time>
      </trkpt>
      <trkpt lat="56.892199475065" lon="14.830430191629">
        <ele>182.6</ele>
        <time>2020-03-02T18:18:56Z</time>
      </trkpt>
      <trkpt lat="56.891993112687" lon="14.830371183053">
        <ele>181.6</ele>
        <time>2020-03-02T18:19:06Z</time>
      </trkpt>
      <trkpt lat="56.891967966987" lon="14.830354000158">
        <ele>181.2</ele>
        <time>2020-03-02T18:19:07Z</time>
      </trkpt>
      <trkpt lat="56.891881298141" lon="14.830279485067">
        <ele>179.8</ele>
        <time>2020-03-02T18:19:10Z</time>
      </trkpt>
      <trkpt lat="56.891791947087" lon="14.830207736003">
        <ele>179.4</ele>
        <time>2020-03-02T18:19:14Z</time>
      </trkpt>
      <trkpt lat="56.891673007926" lon="14.830233468436">
        <ele>178.4</ele>
        <time>2020-03-02T18:19:19Z</time>
      </trkpt>
      <trkpt lat="56.891647610769" lon="14.830216034084">
        <ele>177.2</ele>
        <time>2020-03-02T18:19:20Z</time>
      </trkpt>
      <trkpt lat="56.891615927187" lon="14.830199354103">
        <ele>176.2</ele>
        <time>2020-03-02T18:19:21Z</time>
      </trkpt>
      <trkpt lat="56.891565551968" lon="14.830140010251">
        <ele>174.8</ele>
        <time>2020-03-02T18:19:23Z</time>
      </trkpt>
      <trkpt lat="56.891481649149" lon="14.830072284499">
        <ele>173.8</ele>
        <time>2020-03-02T18:19:26Z</time>
      </trkpt>
      <trkpt lat="56.891401266728" lon="14.829967762206">
        <ele>172.4</ele>
        <time>2020-03-02T18:19:30Z</time>
      </trkpt>
      <trkpt lat="56.891401685823" lon="14.829942616506">
        <ele>172</ele>
        <time>2020-03-02T18:19:31Z</time>
      </trkpt>
      <trkpt lat="56.891395986131" lon="14.829867430863">
        <ele>170.8</ele>
        <time>2020-03-02T18:19:34Z</time>
      </trkpt>
      <trkpt lat="56.891392549552" lon="14.829786545528">
        <ele>169.8</ele>
        <time>2020-03-02T18:19:36Z</time>
      </trkpt>
      <trkpt lat="56.891387604231" lon="14.829747150598">
        <ele>169.4</ele>
        <time>2020-03-02T18:19:37Z</time>
      </trkpt>
      <trkpt lat="56.891360111599" lon="14.829662744865">
        <ele>168.4</ele>
        <time>2020-03-02T18:19:39Z</time>
      </trkpt>
      <trkpt lat="56.891336893736" lon="14.829530813759">
        <ele>167.2</ele>
        <time>2020-03-02T18:19:42Z</time>
      </trkpt>
      <trkpt lat="56.891332283691" lon="14.829441295067">
        <ele>166</ele>
        <time>2020-03-02T18:19:44Z</time>
      </trkpt>
      <trkpt lat="56.891323398877" lon="14.82940583963">
        <ele>165.4</ele>
        <time>2020-03-02T18:19:45Z</time>
      </trkpt>
      <trkpt lat="56.891315268434" lon="14.829384801061">
        <ele>164.8</ele>
        <time>2020-03-02T18:19:46Z</time>
      </trkpt>
      <trkpt lat="56.891288697811" lon="14.829337862421">
        <ele>163.6</ele>
        <time>2020-03-02T18:19:48Z</time>
      </trkpt>
      <trkpt lat="56.89124687213" lon="14.829274159981">
        <ele>162.4</ele>
        <time>2020-03-02T18:19:51Z</time>
      </trkpt>
      <trkpt lat="56.891201023137" lon="14.829226802246">
        <ele>161.6</ele>
        <time>2020-03-02T18:19:53Z</time>
      </trkpt>
      <trkpt lat="56.891170764478" lon="14.829162932168">
        <ele>161.2</ele>
        <time>2020-03-02T18:19:55Z</time>
      </trkpt>
      <trkpt lat="56.890970353249" lon="14.829081208643">
        <ele>160.6</ele>
        <time>2020-03-02T18:20:03Z</time>
      </trkpt>
      <trkpt lat="56.890779581205" lon="14.828999149842">
        <ele>161.2</ele>
        <time>2020-03-02T18:20:09Z</time>
      </trkpt>
      <trkpt lat="56.890593586844" lon="14.828878282844">
        <ele>161</ele>
        <time>2020-03-02T18:20:16Z</time>
      </trkpt>
      <trkpt lat="56.890493004044" lon="14.828780466071">
        <ele>160.8</ele>
        <time>2020-03-02T18:20:21Z</time>
      </trkpt>
      <trkpt lat="56.8904614881" lon="14.828924131837">
        <ele>160.8</ele>
        <time>2020-03-02T18:20:26Z</time>
      </trkpt>
      <trkpt lat="56.890435588029" lon="14.829035778745">
        <ele>161.6</ele>
        <time>2020-03-02T18:20:30Z</time>
      </trkpt>
      <trkpt lat="56.890442712644" lon="14.829106773438">
        <ele>162.2</ele>
        <time>2020-03-02T18:20:33Z</time>
      </trkpt>
      <trkpt lat="56.890442461187" lon="14.829127309093">
        <ele>162.6</ele>
        <time>2020-03-02T18:20:34Z</time>
      </trkpt>
      <trkpt lat="56.890442545006" lon="14.829163015987">
        <ele>162.8</ele>
        <time>2020-03-02T18:20:35Z</time>
      </trkpt>
      <trkpt lat="56.890441706816" lon="14.829204506392">
        <ele>163.2</ele>
        <time>2020-03-02T18:20:36Z</time>
      </trkpt>
      <trkpt lat="56.89043382783" lon="14.829351860194">
        <ele>164.4</ele>
        <time>2020-03-02T18:20:39Z</time>
      </trkpt>
      <trkpt lat="56.890434079287" lon="14.829400391395">
        <ele>165.4</ele>
        <time>2020-03-02T18:20:41Z</time>
      </trkpt>
      <trkpt lat="56.890448496155" lon="14.8294167361">
        <ele>165.6</ele>
        <time>2020-03-02T18:20:42Z</time>
      </trkpt>
      <trkpt lat="56.890440114255" lon="14.829473984477">
        <ele>166</ele>
        <time>2020-03-02T18:20:43Z</time>
      </trkpt>
      <trkpt lat="56.890442377368" lon="14.829538944202">
        <ele>166.2</ele>
        <time>2020-03-02T18:20:45Z</time>
      </trkpt>
      <trkpt lat="56.890526950739" lon="14.829730973531">
        <ele>167</ele>
        <time>2020-03-02T18:20:52Z</time>
      </trkpt>
      <trkpt lat="56.890569698429" lon="14.829850499425">
        <ele>167.8</ele>
        <time>2020-03-02T18:20:55Z</time>
      </trkpt>
      <trkpt lat="56.890589563532" lon="14.829881680093">
        <ele>168</ele>
        <time>2020-03-02T18:20:56Z</time>
      </trkpt>
      <trkpt lat="56.890686709753" lon="14.829966672559">
        <ele>168.2</ele>
        <time>2020-03-02T18:21:00Z</time>
      </trkpt>
      <trkpt lat="56.890847306957" lon="14.830167167607">
        <ele>169.2</ele>
        <time>2020-03-02T18:21:07Z</time>
      </trkpt>
      <trkpt lat="56.89089064138" lon="14.830251070426">
        <ele>170.6</ele>
        <time>2020-03-02T18:21:10Z</time>
      </trkpt>
      <trkpt lat="56.890921319134" lon="14.830361040954">
        <ele>171.6</ele>
        <time>2020-03-02T18:21:13Z</time>
      </trkpt>
      <trkpt lat="56.891051825317" lon="14.830645857916">
        <ele>173</ele>
        <time>2020-03-02T18:21:19Z</time>
      </trkpt>
      <trkpt lat="56.891127346236" lon="14.83096152027">
        <ele>174.2</ele>
        <time>2020-03-02T18:21:26Z</time>
      </trkpt>
      <trkpt lat="56.891180822758" lon="14.831303920885">
        <ele>173.8</ele>
        <time>2020-03-02T18:21:33Z</time>
      </trkpt>
      <trkpt lat="56.891160035646" lon="14.831620421429">
        <ele>173.2</ele>
        <time>2020-03-02T18:21:40Z</time>
      </trkpt>
      <trkpt lat="56.891153330126" lon="14.831819407735">
        <ele>173</ele>
        <time>2020-03-02T18:21:46Z</time>
      </trkpt>
      <trkpt lat="56.891159281275" lon="14.831854695534">
        <ele>173</ele>
        <time>2020-03-02T18:21:47Z</time>
      </trkpt>
      <trkpt lat="56.891189791391" lon="14.83208888582">
        <ele>173.4</ele>
        <time>2020-03-02T18:21:53Z</time>
      </trkpt>
      <trkpt lat="56.891166154433" lon="14.832437069946">
        <ele>172.6</ele>
        <time>2020-03-02T18:22:00Z</time>
      </trkpt>
      <trkpt lat="56.891172692315" lon="14.832608144525">
        <ele>174.2</ele>
        <time>2020-03-02T18:22:05Z</time>
      </trkpt>
      <trkpt lat="56.891195993997" lon="14.832679725951">
        <ele>175.2</ele>
        <time>2020-03-02T18:22:07Z</time>
      </trkpt>
      <trkpt lat="56.89121250634" lon="14.832727083686">
        <ele>175.8</ele>
        <time>2020-03-02T18:22:08Z</time>
      </trkpt>
      <trkpt lat="56.891212757797" lon="14.832803778071">
        <ele>176.6</ele>
        <time>2020-03-02T18:22:10Z</time>
      </trkpt>
      <trkpt lat="56.891181828586" lon="14.832932021141">
        <ele>177.6</ele>
        <time>2020-03-02T18:22:13Z</time>
      </trkpt>
      <trkpt lat="56.891176883265" lon="14.832967895673">
        <ele>178.2</ele>
        <time>2020-03-02T18:22:14Z</time>
      </trkpt>
      <trkpt lat="56.891179230197" lon="14.832986000577">
        <ele>178.8</ele>
        <time>2020-03-02T18:22:15Z</time>
      </trkpt>
      <trkpt lat="56.891174452514" lon="14.833035453787">
        <ele>179.6</ele>
        <time>2020-03-02T18:22:17Z</time>
      </trkpt>
      <trkpt lat="56.891169423374" lon="14.833078033839">
        <ele>180.2</ele>
        <time>2020-03-02T18:22:18Z</time>
      </trkpt>
      <trkpt lat="56.891154838868" lon="14.833133522017">
        <ele>180.4</ele>
        <time>2020-03-02T18:22:19Z</time>
      </trkpt>
      <trkpt lat="56.891169088098" lon="14.833295544144">
        <ele>181.2</ele>
        <time>2020-03-02T18:22:23Z</time>
      </trkpt>
      <trkpt lat="56.891354663364" lon="14.833360000955">
        <ele>180.8</ele>
        <time>2020-03-02T18:22:32Z</time>
      </trkpt>
      <trkpt lat="56.891390873172" lon="14.833334519979">
        <ele>180</ele>
        <time>2020-03-02T18:22:34Z</time>
      </trkpt>
      <trkpt lat="56.89145725782" lon="14.833337705101">
        <ele>178.6</ele>
        <time>2020-03-02T18:22:37Z</time>
      </trkpt>
      <trkpt lat="56.89152012207" lon="14.833342231327">
        <ele>178.2</ele>
        <time>2020-03-02T18:22:42Z</time>
      </trkpt>
      <trkpt lat="56.891550380729" lon="14.833375256013">
        <ele>178.6</ele>
        <time>2020-03-02T18:22:45Z</time>
      </trkpt>
      <trkpt lat="56.891713660141" lon="14.833365952104">
        <ele>177.8</ele>
        <time>2020-03-02T18:22:53Z</time>
      </trkpt>
      <trkpt lat="56.891753390347" lon="14.833415153857">
        <ele>177.6</ele>
        <time>2020-03-02T18:22:55Z</time>
      </trkpt>
      <trkpt lat="56.891866881273" lon="14.83369569605">
        <ele>177.8</ele>
        <time>2020-03-02T18:23:02Z</time>
      </trkpt>
      <trkpt lat="56.891929494066" lon="14.833823436206">
        <ele>178.6</ele>
        <time>2020-03-02T18:23:06Z</time>
      </trkpt>
      <trkpt lat="56.891946257866" lon="14.833961318461">
        <ele>179.2</ele>
        <time>2020-03-02T18:23:09Z</time>
      </trkpt>
      <trkpt lat="56.891928488238" lon="14.834074893206">
        <ele>179.6</ele>
        <time>2020-03-02T18:23:12Z</time>
      </trkpt>
      <trkpt lat="56.89191910051" lon="14.834143708605">
        <ele>181</ele>
        <time>2020-03-02T18:23:14Z</time>
      </trkpt>
      <trkpt lat="56.891924045831" lon="14.834237669704">
        <ele>182.2</ele>
        <time>2020-03-02T18:23:17Z</time>
      </trkpt>
      <trkpt lat="56.891922704727" lon="14.834292990244">
        <ele>183</ele>
        <time>2020-03-02T18:23:19Z</time>
      </trkpt>
      <trkpt lat="56.891919603424" lon="14.834317716849">
        <ele>183.4</ele>
        <time>2020-03-02T18:23:20Z</time>
      </trkpt>
      <trkpt lat="56.891908287859" lon="14.834369014077">
        <ele>184.2</ele>
        <time>2020-03-02T18:23:22Z</time>
      </trkpt>
      <trkpt lat="56.891900995606" lon="14.834378653262">
        <ele>184.6</ele>
        <time>2020-03-02T18:23:23Z</time>
      </trkpt>
      <trkpt lat="56.891872078051" lon="14.834453000715">
        <ele>185.6</ele>
        <time>2020-03-02T18:23:27Z</time>
      </trkpt>
      <trkpt lat="56.89184282522" lon="14.834565904908">
        <ele>186</ele>
        <time>2020-03-02T18:23:30Z</time>
      </trkpt>
      <trkpt lat="56.891735369262" lon="14.834654333953">
        <ele>186</ele>
        <time>2020-03-02T18:23:35Z</time>
      </trkpt>
      <trkpt lat="56.891559433181" lon="14.834895732673">
        <ele>185.4</ele>
        <time>2020-03-02T18:23:42Z</time>
      </trkpt>
      <trkpt lat="56.891513165093" lon="14.834977791474">
        <ele>184.2</ele>
        <time>2020-03-02T18:23:44Z</time>
      </trkpt>
      <trkpt lat="56.891382910367" lon="14.83525305307">
        <ele>183.4</ele>
        <time>2020-03-02T18:23:51Z</time>
      </trkpt>
      <trkpt lat="56.891355250097" lon="14.835278114951">
        <ele>183.2</ele>
        <time>2020-03-02T18:23:52Z</time>
      </trkpt>
      <trkpt lat="56.89123513747" lon="14.835469054633">
        <ele>182</ele>
        <time>2020-03-02T18:23:58Z</time>
      </trkpt>
      <trkpt lat="56.891135309041" lon="14.835660078134">
        <ele>181</ele>
        <time>2020-03-02T18:24:03Z</time>
      </trkpt>
      <trkpt lat="56.891062889425" lon="14.835990576451">
        <ele>180.4</ele>
        <time>2020-03-02T18:24:09Z</time>
      </trkpt>
      <trkpt lat="56.89094093278" lon="14.83625971926">
        <ele>180.6</ele>
        <time>2020-03-02T18:24:16Z</time>
      </trkpt>
      <trkpt lat="56.890914445976" lon="14.836316548542">
        <ele>179.6</ele>
        <time>2020-03-02T18:24:18Z</time>
      </trkpt>
      <trkpt lat="56.890871865924" lon="14.83644328287">
        <ele>178.2</ele>
        <time>2020-03-02T18:24:21Z</time>
      </trkpt>
      <trkpt lat="56.890778407739" lon="14.836744863632">
        <ele>177.4</ele>
        <time>2020-03-02T18:24:27Z</time>
      </trkpt>
      <trkpt lat="56.890726439959" lon="14.836885931009">
        <ele>177</ele>
        <time>2020-03-02T18:24:30Z</time>
      </trkpt>
      <trkpt lat="56.890604986228" lon="14.837134621982">
        <ele>177</ele>
        <time>2020-03-02T18:24:38Z</time>
      </trkpt>
      <trkpt lat="56.890563831099" lon="14.837211735462">
        <ele>176.8</ele>
        <time>2020-03-02T18:24:41Z</time>
      </trkpt>
      <trkpt lat="56.890553186086" lon="14.837378116177">
        <ele>175.6</ele>
        <time>2020-03-02T18:24:44Z</time>
      </trkpt>
      <trkpt lat="56.890540110322" lon="14.837429664862">
        <ele>175.6</ele>
        <time>2020-03-02T18:24:45Z</time>
      </trkpt>
      <trkpt lat="56.890416393478" lon="14.837425809188">
        <ele>174.6</ele>
        <time>2020-03-02T18:24:50Z</time>
      </trkpt>
      <trkpt lat="56.890214473507" lon="14.837354227762">
        <ele>175.2</ele>
        <time>2020-03-02T18:24:57Z</time>
      </trkpt>
      <trkpt lat="56.890082374763" lon="14.837362274386">
        <ele>175.6</ele>
        <time>2020-03-02T18:25:01Z</time>
      </trkpt>
      <trkpt lat="56.889918676256" lon="14.837192373273">
        <ele>176.6</ele>
        <time>2020-03-02T18:25:07Z</time>
      </trkpt>
      <trkpt lat="56.889890010158" lon="14.837108638092">
        <ele>176.8</ele>
        <time>2020-03-02T18:25:09Z</time>
      </trkpt>
      <trkpt lat="56.889733017171" lon="14.836896576022">
        <ele>177.4</ele>
        <time>2020-03-02T18:25:16Z</time>
      </trkpt>
      <trkpt lat="56.889707033281" lon="14.836871095046">
        <ele>177.8</ele>
        <time>2020-03-02T18:25:17Z</time>
      </trkpt>
      <trkpt lat="56.889614748562" lon="14.836819713999">
        <ele>179</ele>
        <time>2020-03-02T18:25:21Z</time>
      </trkpt>
      <trkpt lat="56.889496479953" lon="14.83668468159">
        <ele>180</ele>
        <time>2020-03-02T18:25:27Z</time>
      </trkpt>
      <trkpt lat="56.889457839394" lon="14.836620057141">
        <ele>180.6</ele>
        <time>2020-03-02T18:25:29Z</time>
      </trkpt>
      <trkpt lat="56.889412409496" lon="14.836585691351">
        <ele>181.4</ele>
        <time>2020-03-02T18:25:31Z</time>
      </trkpt>
      <trkpt lat="56.889357759508" lon="14.836521821273">
        <ele>182.4</ele>
        <time>2020-03-02T18:25:34Z</time>
      </trkpt>
      <trkpt lat="56.889293470335" lon="14.836421238473">
        <ele>183.6</ele>
        <time>2020-03-02T18:25:38Z</time>
      </trkpt>
      <trkpt lat="56.889110661096" lon="14.83626391021">
        <ele>183.6</ele>
        <time>2020-03-02T18:25:47Z</time>
      </trkpt>
      <trkpt lat="56.889051401063" lon="14.836240357071">
        <ele>182.4</ele>
        <time>2020-03-02T18:25:49Z</time>
      </trkpt>
      <trkpt lat="56.888993901229" lon="14.836236417578">
        <ele>180.8</ele>
        <time>2020-03-02T18:25:51Z</time>
      </trkpt>
      <trkpt lat="56.888910417505" lon="14.836211774792">
        <ele>179.8</ele>
        <time>2020-03-02T18:25:54Z</time>
      </trkpt>
      <trkpt lat="56.888736995994" lon="14.836240189433">
        <ele>178.6</ele>
        <time>2020-03-02T18:25:59Z</time>
      </trkpt>
      <trkpt lat="56.888559551171" lon="14.83633431817">
        <ele>177.4</ele>
        <time>2020-03-02T18:26:05Z</time>
      </trkpt>
      <trkpt lat="56.888503560079" lon="14.836349321771">
        <ele>176</ele>
        <time>2020-03-02T18:26:07Z</time>
      </trkpt>
      <trkpt lat="56.888445557331" lon="14.836335659274">
        <ele>174.8</ele>
        <time>2020-03-02T18:26:09Z</time>
      </trkpt>
      <trkpt lat="56.8883073398" lon="14.836290480833">
        <ele>173.8</ele>
        <time>2020-03-02T18:26:14Z</time>
      </trkpt>
      <trkpt lat="56.888184544965" lon="14.83624379365">
        <ele>172.8</ele>
        <time>2020-03-02T18:26:18Z</time>
      </trkpt>
      <trkpt lat="56.888000897536" lon="14.836156705709">
        <ele>173</ele>
        <time>2020-03-02T18:26:24Z</time>
      </trkpt>
      <trkpt lat="56.887833930088" lon="14.83601832054">
        <ele>172.6</ele>
        <time>2020-03-02T18:26:30Z</time>
      </trkpt>
      <trkpt lat="56.887666543545" lon="14.835818747501">
        <ele>172.8</ele>
        <time>2020-03-02T18:26:36Z</time>
      </trkpt>
      <trkpt lat="56.887509969653" lon="14.835574415116">
        <ele>172</ele>
        <time>2020-03-02T18:26:42Z</time>
      </trkpt>
      <trkpt lat="56.887383402963" lon="14.835444663304">
        <ele>171.6</ele>
        <time>2020-03-02T18:26:47Z</time>
      </trkpt>
      <trkpt lat="56.887302936723" lon="14.835426809857">
        <ele>171</ele>
        <time>2020-03-02T18:26:50Z</time>
      </trkpt>
      <trkpt lat="56.887227164347" lon="14.835438376879">
        <ele>171.2</ele>
        <time>2020-03-02T18:26:53Z</time>
      </trkpt>
      <trkpt lat="56.88716907778" lon="14.835395042456">
        <ele>171.4</ele>
        <time>2020-03-02T18:26:56Z</time>
      </trkpt>
      <trkpt lat="56.887113086688" lon="14.835283814643">
        <ele>172.8</ele>
        <time>2020-03-02T18:27:01Z</time>
      </trkpt>
      <trkpt lat="56.887089617368" lon="14.835240647858">
        <ele>174</ele>
        <time>2020-03-02T18:27:03Z</time>
      </trkpt>
      <trkpt lat="56.887068075885" lon="14.83517091045">
        <ele>175.2</ele>
        <time>2020-03-02T18:27:06Z</time>
      </trkpt>
      <trkpt lat="56.887074278491" lon="14.835126234923">
        <ele>176.2</ele>
        <time>2020-03-02T18:27:08Z</time>
      </trkpt>
      <trkpt lat="56.887079978183" lon="14.835074770057">
        <ele>177.4</ele>
        <time>2020-03-02T18:27:10Z</time>
      </trkpt>
      <trkpt lat="56.887084755866" lon="14.835048786167">
        <ele>177.8</ele>
        <time>2020-03-02T18:27:11Z</time>
      </trkpt>
      <trkpt lat="56.887110739756" lon="14.835048702348">
        <ele>178.4</ele>
        <time>2020-03-02T18:27:13Z</time>
      </trkpt>
      <trkpt lat="56.887218866266" lon="14.835064879415">
        <ele>177</ele>
        <time>2020-03-02T18:27:18Z</time>
      </trkpt>
      <trkpt lat="56.887290196235" lon="14.835034788394">
        <ele>176</ele>
        <time>2020-03-02T18:27:21Z</time>
      </trkpt>
      <trkpt lat="56.887356916159" lon="14.834975528361">
        <ele>174.8</ele>
        <time>2020-03-02T18:27:25Z</time>
      </trkpt>
      <trkpt lat="56.887448697964" lon="14.83496723028">
        <ele>173.6</ele>
        <time>2020-03-02T18:27:30Z</time>
      </trkpt>
      <trkpt lat="56.887480213908" lon="14.834931355748">
        <ele>173</ele>
        <time>2020-03-02T18:27:32Z</time>
      </trkpt>
      <trkpt lat="56.887489769274" lon="14.834899001614">
        <ele>172.4</ele>
        <time>2020-03-02T18:27:33Z</time>
      </trkpt>
      <trkpt lat="56.887489853093" lon="14.834860696331">
        <ele>171.6</ele>
        <time>2020-03-02T18:27:34Z</time>
      </trkpt>
      <trkpt lat="56.887492032387" lon="14.834824235066">
        <ele>171</ele>
        <time>2020-03-02T18:27:35Z</time>
      </trkpt>
      <trkpt lat="56.88748507541" lon="14.834798670271">
        <ele>170.6</ele>
        <time>2020-03-02T18:27:36Z</time>
      </trkpt>
      <trkpt lat="56.887470993818" lon="14.834779308082">
        <ele>169.8</ele>
        <time>2020-03-02T18:27:37Z</time>
      </trkpt>
      <trkpt lat="56.887447105403" lon="14.834717784936">
        <ele>168.6</ele>
        <time>2020-03-02T18:27:39Z</time>
      </trkpt>
      <trkpt lat="56.887355239779" lon="14.834430872499">
        <ele>168</ele>
        <time>2020-03-02T18:27:46Z</time>
      </trkpt>
      <trkpt lat="56.887341325825" lon="14.834384101497">
        <ele>167.6</ele>
        <time>2020-03-02T18:27:47Z</time>
      </trkpt>
      <trkpt lat="56.88731073189" lon="14.834229958356">
        <ele>166.4</ele>
        <time>2020-03-02T18:27:50Z</time>
      </trkpt>
      <trkpt lat="56.887224817415" lon="14.833985793609">
        <ele>167.8</ele>
        <time>2020-03-02T18:27:57Z</time>
      </trkpt>
      <trkpt lat="56.887206461054" lon="14.833909769776">
        <ele>168.8</ele>
        <time>2020-03-02T18:27:59Z</time>
      </trkpt>
      <trkpt lat="56.887181818268" lon="14.833811701546">
        <ele>170</ele>
        <time>2020-03-02T18:28:01Z</time>
      </trkpt>
      <trkpt lat="56.887153906541" lon="14.833763086526">
        <ele>170.4</ele>
        <time>2020-03-02T18:28:03Z</time>
      </trkpt>
      <trkpt lat="56.887090790834" lon="14.833570721921">
        <ele>169.6</ele>
        <time>2020-03-02T18:28:08Z</time>
      </trkpt>
      <trkpt lat="56.887050725352" lon="14.833506684205">
        <ele>168.8</ele>
        <time>2020-03-02T18:28:10Z</time>
      </trkpt>
      <trkpt lat="56.887007558567" lon="14.833470725854">
        <ele>167.6</ele>
        <time>2020-03-02T18:28:12Z</time>
      </trkpt>
      <trkpt lat="56.887020047598" lon="14.833284563855">
        <ele>168</ele>
        <time>2020-03-02T18:28:19Z</time>
      </trkpt>
      <trkpt lat="56.887008061481" lon="14.833213233886">
        <ele>168.4</ele>
        <time>2020-03-02T18:28:21Z</time>
      </trkpt>
      <trkpt lat="56.887042678728" lon="14.83303352595">
        <ele>168</ele>
        <time>2020-03-02T18:28:26Z</time>
      </trkpt>
      <trkpt lat="56.887094227413" lon="14.832973595365">
        <ele>167.6</ele>
        <time>2020-03-02T18:28:29Z</time>
      </trkpt>
      <trkpt lat="56.887131610687" lon="14.832887513252">
        <ele>167.6</ele>
        <time>2020-03-02T18:28:32Z</time>
      </trkpt>
      <trkpt lat="56.887333027744" lon="14.832832611807">
        <ele>168</ele>
        <time>2020-03-02T18:28:40Z</time>
      </trkpt>
      <trkpt lat="56.887535702086" lon="14.832747284065">
        <ele>168.2</ele>
        <time>2020-03-02T18:28:48Z</time>
      </trkpt>
      <trkpt lat="56.887715745298" lon="14.832599427349">
        <ele>167.2</ele>
        <time>2020-03-02T18:28:54Z</time>
      </trkpt>
      <trkpt lat="56.887875336674" lon="14.832379905388">
        <ele>167.2</ele>
        <time>2020-03-02T18:29:01Z</time>
      </trkpt>
      <trkpt lat="56.887981619166" lon="14.832272700887">
        <ele>166.4</ele>
        <time>2020-03-02T18:29:05Z</time>
      </trkpt>
      <trkpt lat="56.88808773402" lon="14.832142697618">
        <ele>165.8</ele>
        <time>2020-03-02T18:29:09Z</time>
      </trkpt>
      <trkpt lat="56.888115142833" lon="14.831952679945">
        <ele>165.4</ele>
        <time>2020-03-02T18:29:12Z</time>
      </trkpt>
      <trkpt lat="56.888128050959" lon="14.831696277624">
        <ele>164</ele>
        <time>2020-03-02T18:29:16Z</time>
      </trkpt>
      <trkpt lat="56.888142635465" lon="14.831459237492">
        <ele>162.8</ele>
        <time>2020-03-02T18:29:20Z</time>
      </trkpt>
      <trkpt lat="56.888167110613" lon="14.831292186225">
        <ele>161.6</ele>
        <time>2020-03-02T18:29:23Z</time>
      </trkpt>
      <trkpt lat="56.888186975716" lon="14.831194872366">
        <ele>160.6</ele>
        <time>2020-03-02T18:29:25Z</time>
      </trkpt>
      <trkpt lat="56.888234836365" lon="14.831156650902">
        <ele>160</ele>
        <time>2020-03-02T18:29:27Z</time>
      </trkpt>
      <trkpt lat="56.888277248779" lon="14.83117609691">
        <ele>159.6</ele>
        <time>2020-03-02T18:29:29Z</time>
      </trkpt>
      <trkpt lat="56.888296946244" lon="14.831216078573">
        <ele>159.2</ele>
        <time>2020-03-02T18:29:31Z</time>
      </trkpt>
      <trkpt lat="56.88830985437" lon="14.831242230101">
        <ele>159.8</ele>
        <time>2020-03-02T18:29:33Z</time>
      </trkpt>
      <trkpt lat="56.888335167708" lon="14.83126243048">
        <ele>160.8</ele>
        <time>2020-03-02T18:29:35Z</time>
      </trkpt>
      <trkpt lat="56.888378669769" lon="14.83126829781">
        <ele>161.6</ele>
        <time>2020-03-02T18:29:38Z</time>
      </trkpt>
      <trkpt lat="56.888389985334" lon="14.831286235076">
        <ele>162</ele>
        <time>2020-03-02T18:29:39Z</time>
      </trkpt>
      <trkpt lat="56.888430218454" lon="14.831347674403">
        <ele>163.2</ele>
        <time>2020-03-02T18:29:42Z</time>
      </trkpt>
      <trkpt lat="56.888511774341" lon="14.831458986035">
        <ele>164.4</ele>
        <time>2020-03-02T18:29:47Z</time>
      </trkpt>
      <trkpt lat="56.888566172872" lon="14.831569124201">
        <ele>165.6</ele>
        <time>2020-03-02T18:29:51Z</time>
      </trkpt>
      <trkpt lat="56.888639682135" lon="14.83169242195">
        <ele>166.6</ele>
        <time>2020-03-02T18:29:55Z</time>
      </trkpt>
      <trkpt lat="56.88874236041" lon="14.831972545048">
        <ele>167.6</ele>
        <time>2020-03-02T18:30:03Z</time>
      </trkpt>
      <trkpt lat="56.888883679244" lon="14.832229534102">
        <ele>167.8</ele>
        <time>2020-03-02T18:30:11Z</time>
      </trkpt>
      <trkpt lat="56.888965905683" lon="14.832349646729">
        <ele>169</ele>
        <time>2020-03-02T18:30:16Z</time>
      </trkpt>
      <trkpt lat="56.889091718002" lon="14.832579394608">
        <ele>170</ele>
        <time>2020-03-02T18:30:23Z</time>
      </trkpt>
      <trkpt lat="56.889120551738" lon="14.832622393755">
        <ele>170.2</ele>
        <time>2020-03-02T18:30:24Z</time>
      </trkpt>
      <trkpt lat="56.889179308857" lon="14.832747032608">
        <ele>170.4</ele>
        <time>2020-03-02T18:30:27Z</time>
      </trkpt>
      <trkpt lat="56.889282238589" lon="14.832990862079">
        <ele>171.4</ele>
        <time>2020-03-02T18:30:32Z</time>
      </trkpt>
      <trkpt lat="56.889346024848" lon="14.833178868096">
        <ele>172.6</ele>
        <time>2020-03-02T18:30:36Z</time>
      </trkpt>
      <trkpt lat="56.889461611249" lon="14.833462176316">
        <ele>172.6</ele>
        <time>2020-03-02T18:30:43Z</time>
      </trkpt>
      <trkpt lat="56.889470831339" lon="14.833646578116">
        <ele>173.8</ele>
        <time>2020-03-02T18:30:47Z</time>
      </trkpt>
      <trkpt lat="56.889485583483" lon="14.834009095291">
        <ele>174.6</ele>
        <time>2020-03-02T18:30:55Z</time>
      </trkpt>
      <trkpt lat="56.889496396134" lon="14.834049496049">
        <ele>174.8</ele>
        <time>2020-03-02T18:30:56Z</time>
      </trkpt>
      <trkpt lat="56.889516428875" lon="14.834274214788">
        <ele>175.2</ele>
        <time>2020-03-02T18:31:01Z</time>
      </trkpt>
      <trkpt lat="56.889538305634" lon="14.834311681881">
        <ele>175</ele>
        <time>2020-03-02T18:31:03Z</time>
      </trkpt>
      <trkpt lat="56.889668057446" lon="14.834245213414">
        <ele>176</ele>
        <time>2020-03-02T18:31:10Z</time>
      </trkpt>
      <trkpt lat="56.88986218225" lon="14.834173799626">
        <ele>176.8</ele>
        <time>2020-03-02T18:31:17Z</time>
      </trkpt>
      <trkpt lat="56.889909623804" lon="14.834086041133">
        <ele>177</ele>
        <time>2020-03-02T18:31:19Z</time>
      </trkpt>
      <trkpt lat="56.889980702316" lon="14.834018063924">
        <ele>175.4</ele>
        <time>2020-03-02T18:31:22Z</time>
      </trkpt>
      <trkpt lat="56.890065191868" lon="14.833970287094">
        <ele>175.4</ele>
        <time>2020-03-02T18:31:27Z</time>
      </trkpt>
      <trkpt lat="56.89008765536" lon="14.83394799124">
        <ele>176.4</ele>
        <time>2020-03-02T18:31:29Z</time>
      </trkpt>
      <trkpt lat="56.890114393621" lon="14.833917564943">
        <ele>177.4</ele>
        <time>2020-03-02T18:31:31Z</time>
      </trkpt>
      <trkpt lat="56.890310949176" lon="14.833868782285">
        <ele>176.4</ele>
        <time>2020-03-02T18:31:40Z</time>
      </trkpt>
      <trkpt lat="56.89039191833" lon="14.833891748691">
        <ele>175.2</ele>
        <time>2020-03-02T18:31:44Z</time>
      </trkpt>
      <trkpt lat="56.89053441063" lon="14.834109091358">
        <ele>175.8</ele>
        <time>2020-03-02T18:31:53Z</time>
      </trkpt>
      <trkpt lat="56.890554108095" lon="14.834126274253">
        <ele>176.2</ele>
        <time>2020-03-02T18:31:54Z</time>
      </trkpt>
      <trkpt lat="56.890629629014" lon="14.834200034973">
        <ele>177.6</ele>
        <time>2020-03-02T18:31:57Z</time>
      </trkpt>
      <trkpt lat="56.890759799921" lon="14.834251248382">
        <ele>178.6</ele>
        <time>2020-03-02T18:32:02Z</time>
      </trkpt>
      <trkpt lat="56.890945207549" lon="14.834216882592">
        <ele>179.4</ele>
        <time>2020-03-02T18:32:09Z</time>
      </trkpt>
      <trkpt lat="56.890964821195" lon="14.834208752149">
        <ele>179.8</ele>
        <time>2020-03-02T18:32:10Z</time>
      </trkpt>
      <trkpt lat="56.891005221953" lon="14.834202214267">
        <ele>180.6</ele>
        <time>2020-03-02T18:32:12Z</time>
      </trkpt>
      <trkpt lat="56.891041012666" lon="14.834215792945">
        <ele>181</ele>
        <time>2020-03-02T18:32:14Z</time>
      </trkpt>
      <trkpt lat="56.891086191107" lon="14.83424722507">
        <ele>181</ele>
        <time>2020-03-02T18:32:16Z</time>
      </trkpt>
      <trkpt lat="56.891225330647" lon="14.834446965747">
        <ele>181</ele>
        <time>2020-03-02T18:32:24Z</time>
      </trkpt>
      <trkpt lat="56.891360614513" lon="14.83452298958">
        <ele>182.2</ele>
        <time>2020-03-02T18:32:29Z</time>
      </trkpt>
      <trkpt lat="56.891447031902" lon="14.834570682591">
        <ele>183.2</ele>
        <time>2020-03-02T18:32:32Z</time>
      </trkpt>
      <trkpt lat="56.89150838741" lon="14.834622231276">
        <ele>184.4</ele>
        <time>2020-03-02T18:32:35Z</time>
      </trkpt>
      <trkpt lat="56.891686586604" lon="14.834801184841">
        <ele>184.8</ele>
        <time>2020-03-02T18:32:42Z</time>
      </trkpt>
      <trkpt lat="56.891849027826" lon="14.834945269702">
        <ele>184.4</ele>
        <time>2020-03-02T18:32:48Z</time>
      </trkpt>
      <trkpt lat="56.892026640287" lon="14.835126989294">
        <ele>183</ele>
        <time>2020-03-02T18:32:55Z</time>
      </trkpt>
      <trkpt lat="56.892197966323" lon="14.835243665342">
        <ele>183.2</ele>
        <time>2020-03-02T18:33:01Z</time>
      </trkpt>
      <trkpt lat="56.892384631236" lon="14.835316252596">
        <ele>182.8</ele>
        <time>2020-03-02T18:33:07Z</time>
      </trkpt>
      <trkpt lat="56.89250331894" lon="14.835309966171">
        <ele>181.6</ele>
        <time>2020-03-02T18:33:10Z</time>
      </trkpt>
      <trkpt lat="56.892565596457" lon="14.835311391094">
        <ele>180.2</ele>
        <time>2020-03-02T18:33:12Z</time>
      </trkpt>
      <trkpt lat="56.892633992761" lon="14.835310385266">
        <ele>178.2</ele>
        <time>2020-03-02T18:33:14Z</time>
      </trkpt>
      <trkpt lat="56.892689480939" lon="14.835283060272">
        <ele>177</ele>
        <time>2020-03-02T18:33:16Z</time>
      </trkpt>
      <trkpt lat="56.89276315784" lon="14.835257663115">
        <ele>176</ele>
        <time>2020-03-02T18:33:18Z</time>
      </trkpt>
      <trkpt lat="56.892879750069" lon="14.835208964276">
        <ele>174.6</ele>
        <time>2020-03-02T18:33:21Z</time>
      </trkpt>
      <trkpt lat="56.892976561014" lon="14.835153392279">
        <ele>173</ele>
        <time>2020-03-02T18:33:24Z</time>
      </trkpt>
      <trkpt lat="56.893055602331" lon="14.835083571052">
        <ele>171.6</ele>
        <time>2020-03-02T18:33:26Z</time>
      </trkpt>
      <trkpt lat="56.893205135427" lon="14.834894894483">
        <ele>171</ele>
        <time>2020-03-02T18:33:31Z</time>
      </trkpt>
      <trkpt lat="56.893220222847" lon="14.834843261979">
        <ele>171.2</ele>
        <time>2020-03-02T18:33:32Z</time>
      </trkpt>
      <trkpt lat="56.893309825358" lon="14.834500777545">
        <ele>171.2</ele>
        <time>2020-03-02T18:33:38Z</time>
      </trkpt>
      <trkpt lat="56.89341024052" lon="14.834211015262">
        <ele>171</ele>
        <time>2020-03-02T18:33:45Z</time>
      </trkpt>
      <trkpt lat="56.893479977928" lon="14.834099871268">
        <ele>170.4</ele>
        <time>2020-03-02T18:33:48Z</time>
      </trkpt>
      <trkpt lat="56.893580141633" lon="14.833802481456">
        <ele>169.8</ele>
        <time>2020-03-02T18:33:54Z</time>
      </trkpt>
      <trkpt lat="56.893669911782" lon="14.833493608441">
        <ele>169.8</ele>
        <time>2020-03-02T18:34:00Z</time>
      </trkpt>
      <trkpt lat="56.893671420524" lon="14.833422110834">
        <ele>169.4</ele>
        <time>2020-03-02T18:34:01Z</time>
      </trkpt>
      <trkpt lat="56.893715257861" lon="14.833074429622">
        <ele>169</ele>
        <time>2020-03-02T18:34:07Z</time>
      </trkpt>
      <trkpt lat="56.893891613037" lon="14.832880891551">
        <ele>168.4</ele>
        <time>2020-03-02T18:34:14Z</time>
      </trkpt>
      <trkpt lat="56.893912483968" lon="14.832855075299">
        <ele>168.4</ele>
        <time>2020-03-02T18:34:15Z</time>
      </trkpt>
      <trkpt lat="56.894004098135" lon="14.832741081459">
        <ele>167.2</ele>
        <time>2020-03-02T18:34:19Z</time>
      </trkpt>
      <trkpt lat="56.893934444546" lon="14.832443943104">
        <ele>168.6</ele>
        <time>2020-03-02T18:34:27Z</time>
      </trkpt>
      <trkpt lat="56.893903263878" lon="14.83229843332">
        <ele>170</ele>
        <time>2020-03-02T18:34:31Z</time>
      </trkpt>
      <trkpt lat="56.893880716567" lon="14.832105146706">
        <ele>171.2</ele>
        <time>2020-03-02T18:34:36Z</time>
      </trkpt>
      <trkpt lat="56.893830257529" lon="14.831917475965">
        <ele>172.2</ele>
        <time>2020-03-02T18:34:40Z</time>
      </trkpt>
      <trkpt lat="56.893728082168" lon="14.831645148034">
        <ele>172</ele>
        <time>2020-03-02T18:34:46Z</time>
      </trkpt>
      <trkpt lat="56.893674689465" lon="14.831486813943">
        <ele>171.2</ele>
        <time>2020-03-02T18:34:50Z</time>
      </trkpt>
      <trkpt lat="56.893535466106" lon="14.831278188452">
        <ele>171</ele>
        <time>2020-03-02T18:34:58Z</time>
      </trkpt>
      <trkpt lat="56.893403115905" lon="14.831053804989">
        <ele>170.6</ele>
        <time>2020-03-02T18:35:04Z</time>
      </trkpt>
      <trkpt lat="56.893365648812" lon="14.830991443653">
        <ele>170.6</ele>
        <time>2020-03-02T18:35:06Z</time>
      </trkpt>
      <trkpt lat="56.893360368215" lon="14.830932686534">
        <ele>170.6</ele>
        <time>2020-03-02T18:35:08Z</time>
      </trkpt>
      <trkpt lat="56.893373695436" lon="14.830860183099">
        <ele>170</ele>
        <time>2020-03-02T18:35:10Z</time>
      </trkpt>
      <trkpt lat="56.893373108703" lon="14.830829002431">
        <ele>169.6</ele>
        <time>2020-03-02T18:35:11Z</time>
      </trkpt>
      <trkpt lat="56.893352740686" lon="14.830768233656">
        <ele>169</ele>
        <time>2020-03-02T18:35:13Z</time>
      </trkpt>
      <trkpt lat="56.893342682406" lon="14.830738310273">
        <ele>168.8</ele>
        <time>2020-03-02T18:35:14Z</time>
      </trkpt>
      <trkpt lat="56.893309406263" lon="14.830383923541">
        <ele>168.2</ele>
        <time>2020-03-02T18:35:21Z</time>
      </trkpt>
      <trkpt lat="56.893304377123" lon="14.830309743726">
        <ele>167.8</ele>
        <time>2020-03-02T18:35:23Z</time>
      </trkpt>
      <trkpt lat="56.893302197829" lon="14.830285268578">
        <ele>167.6</ele>
        <time>2020-03-02T18:35:24Z</time>
      </trkpt>
      <trkpt lat="56.893273867007" lon="14.830235060997">
        <ele>166.8</ele>
        <time>2020-03-02T18:35:26Z</time>
      </trkpt>
      <trkpt lat="56.893204381056" lon="14.830124671374">
        <ele>167.2</ele>
        <time>2020-03-02T18:35:32Z</time>
      </trkpt>
      <trkpt lat="56.893166243411" lon="14.830090137946">
        <ele>168</ele>
        <time>2020-03-02T18:35:34Z</time>
      </trkpt>
      <trkpt lat="56.893101116048" lon="14.829998607598">
        <ele>169.4</ele>
        <time>2020-03-02T18:35:38Z</time>
      </trkpt>
      <trkpt lat="56.89305317158" lon="14.829973378079">
        <ele>170.6</ele>
        <time>2020-03-02T18:35:41Z</time>
      </trkpt>
      <trkpt lat="56.893018051419" lon="14.829974803002">
        <ele>171.4</ele>
        <time>2020-03-02T18:35:43Z</time>
      </trkpt>
      <trkpt lat="56.892993157176" lon="14.829961391962">
        <ele>171.8</ele>
        <time>2020-03-02T18:35:44Z</time>
      </trkpt>
      <trkpt lat="56.89295594154" lon="14.829936246262">
        <ele>173</ele>
        <time>2020-03-02T18:35:46Z</time>
      </trkpt>
      <trkpt lat="56.892928951822" lon="14.829949154388">
        <ele>174</ele>
        <time>2020-03-02T18:35:48Z</time>
      </trkpt>
      <trkpt lat="56.892865919934" lon="14.829976395563">
        <ele>175.2</ele>
        <time>2020-03-02T18:35:52Z</time>
      </trkpt>
      <trkpt lat="56.892677075727" lon="14.82999760177">
        <ele>174.8</ele>
        <time>2020-03-02T18:36:01Z</time>
      </trkpt>
      <trkpt lat="56.892570038864" lon="14.830087204281">
        <ele>176.2</ele>
        <time>2020-03-02T18:36:07Z</time>
      </trkpt>
      <trkpt lat="56.892504911501" lon="14.830146967228">
        <ele>177.6</ele>
        <time>2020-03-02T18:36:10Z</time>
      </trkpt>
      <trkpt lat="56.892423104157" lon="14.830256099566">
        <ele>178.6</ele>
        <time>2020-03-02T18:36:14Z</time>
      </trkpt>
      <trkpt lat="56.892294358173" lon="14.830396664029">
        <ele>180</ele>
        <time>2020-03-02T18:36:21Z</time>
      </trkpt>
      <trkpt lat="56.892187572767" lon="14.830525577651">
        <ele>181</ele>
        <time>2020-03-02T18:36:26Z</time>
      </trkpt>
      <trkpt lat="56.892136526996" lon="14.830553070283">
        <ele>181</ele>
        <time>2020-03-02T18:36:28Z</time>
      </trkpt>
      <trkpt lat="56.892055138747" lon="14.830564050572">
        <ele>181</ele>
        <time>2020-03-02T18:36:31Z</time>
      </trkpt>
      <trkpt lat="56.891917507949" lon="14.830410242707">
        <ele>179.8</ele>
        <time>2020-03-02T18:36:37Z</time>
      </trkpt>
      <trkpt lat="56.891805777222" lon="14.830302200016">
        <ele>178.6</ele>
        <time>2020-03-02T18:36:42Z</time>
      </trkpt>
      <trkpt lat="56.891787588499" lon="14.83030773207">
        <ele>178.4</ele>
        <time>2020-03-02T18:36:43Z</time>
      </trkpt>
      <trkpt lat="56.891730423941" lon="14.83032617225">
        <ele>177.4</ele>
        <time>2020-03-02T18:36:46Z</time>
      </trkpt>
      <trkpt lat="56.891682814749" lon="14.830311252468">
        <ele>176</ele>
        <time>2020-03-02T18:36:48Z</time>
      </trkpt>
      <trkpt lat="56.89163830686" lon="14.830252495349">
        <ele>174.6</ele>
        <time>2020-03-02T18:36:50Z</time>
      </trkpt>
      <trkpt lat="56.891598157559" lon="14.830208322736">
        <ele>173.6</ele>
        <time>2020-03-02T18:36:52Z</time>
      </trkpt>
      <trkpt lat="56.891570497289" lon="14.830198432094">
        <ele>173.4</ele>
        <time>2020-03-02T18:36:53Z</time>
      </trkpt>
      <trkpt lat="56.891473099611" lon="14.830106650289">
        <ele>172.6</ele>
        <time>2020-03-02T18:36:56Z</time>
      </trkpt>
      <trkpt lat="56.891413336664" lon="14.830051078292">
        <ele>172</ele>
        <time>2020-03-02T18:36:58Z</time>
      </trkpt>
      <trkpt lat="56.891404954764" lon="14.830015958131">
        <ele>171.4</ele>
        <time>2020-03-02T18:36:59Z</time>
      </trkpt>
      <trkpt lat="56.891414677768" lon="14.82988360793">
        <ele>169.8</ele>
        <time>2020-03-02T18:37:03Z</time>
      </trkpt>
      <trkpt lat="56.891407217877" lon="14.829777241619">
        <ele>168.4</ele>
        <time>2020-03-02T18:37:05Z</time>
      </trkpt>
      <trkpt lat="56.891397159597" lon="14.829688812574">
        <ele>167.2</ele>
        <time>2020-03-02T18:37:07Z</time>
      </trkpt>
      <trkpt lat="56.891359776323" lon="14.829495609779">
        <ele>166</ele>
        <time>2020-03-02T18:37:11Z</time>
      </trkpt>
      <trkpt lat="56.89129045801" lon="14.829336353679">
        <ele>165</ele>
        <time>2020-03-02T18:37:15Z</time>
      </trkpt>
      <trkpt lat="56.891259780256" lon="14.829304083364">
        <ele>164.2</ele>
        <time>2020-03-02T18:37:16Z</time>
      </trkpt>
      <trkpt lat="56.891236478574" lon="14.82926334733">
        <ele>163.2</ele>
        <time>2020-03-02T18:37:17Z</time>
      </trkpt>
      <trkpt lat="56.891209572675" lon="14.829232082843">
        <ele>162.2</ele>
        <time>2020-03-02T18:37:18Z</time>
      </trkpt>
      <trkpt lat="56.891183002052" lon="14.829210373722">
        <ele>161.6</ele>
        <time>2020-03-02T18:37:19Z</time>
      </trkpt>
      <trkpt lat="56.891094656826" lon="14.829074586942">
        <ele>160.6</ele>
        <time>2020-03-02T18:37:23Z</time>
      </trkpt>
      <trkpt lat="56.890895754339" lon="14.828983643327">
        <ele>160.2</ele>
        <time>2020-03-02T18:37:30Z</time>
      </trkpt>
      <trkpt lat="56.890678244034" lon="14.828922371638">
        <ele>160.8</ele>
        <time>2020-03-02T18:37:38Z</time>
      </trkpt>
      <trkpt lat="56.890436593857" lon="14.828761858253">
        <ele>159.8</ele>
        <time>2020-03-02T18:37:46Z</time>
      </trkpt>
      <trkpt lat="56.890300723258" lon="14.828521381542">
        <ele>160.6</ele>
        <time>2020-03-02T18:37:52Z</time>
      </trkpt>
      <trkpt lat="56.890217993905" lon="14.828396155956">
        <ele>161.4</ele>
        <time>2020-03-02T18:37:57Z</time>
      </trkpt>
      <trkpt lat="56.890115399449" lon="14.828222734445">
        <ele>160.4</ele>
        <time>2020-03-02T18:38:43Z</time>
      </trkpt>
      <trkpt lat="56.890119255123" lon="14.82819549327">
        <ele>160.4</ele>
        <time>2020-03-02T18:38:44Z</time>
      </trkpt>
      <trkpt lat="56.890115650906" lon="14.827793329708">
        <ele>161.2</ele>
        <time>2020-03-02T18:38:52Z</time>
      </trkpt>
      <trkpt lat="56.890122272607" lon="14.827739937005">
        <ele>161.6</ele>
        <time>2020-03-02T18:38:53Z</time>
      </trkpt>
      <trkpt lat="56.890135599828" lon="14.82736484698">
        <ele>162.4</ele>
        <time>2020-03-02T18:39:00Z</time>
      </trkpt>
      <trkpt lat="56.890178850432" lon="14.827031582636">
        <ele>160.8</ele>
        <time>2020-03-02T18:39:06Z</time>
      </trkpt>
      <trkpt lat="56.890179437165" lon="14.826932508578">
        <ele>160.2</ele>
        <time>2020-03-02T18:39:08Z</time>
      </trkpt>
      <trkpt lat="56.890195530413" lon="14.826554903983">
        <ele>159.8</ele>
        <time>2020-03-02T18:39:15Z</time>
      </trkpt>
      <trkpt lat="56.890260909233" lon="14.826178221397">
        <ele>160.8</ele>
        <time>2020-03-02T18:39:21Z</time>
      </trkpt>
      <trkpt lat="56.890320085447" lon="14.825915029737">
        <ele>161.2</ele>
        <time>2020-03-02T18:39:25Z</time>
      </trkpt>
      <trkpt lat="56.890395103452" lon="14.82558117866">
        <ele>162</ele>
        <time>2020-03-02T18:39:31Z</time>
      </trkpt>
      <trkpt lat="56.890532063698" lon="14.825336175723">
        <ele>160.8</ele>
        <time>2020-03-02T18:39:37Z</time>
      </trkpt>
      <trkpt lat="56.89066852103" lon="14.825087149474">
        <ele>160.8</ele>
        <time>2020-03-02T18:39:43Z</time>
      </trkpt>
      <trkpt lat="56.890767595088" lon="14.824790262576">
        <ele>162.4</ele>
        <time>2020-03-02T18:39:50Z</time>
      </trkpt>
      <trkpt lat="56.890834817926" lon="14.824665958999">
        <ele>163.4</ele>
        <time>2020-03-02T18:39:54Z</time>
      </trkpt>
      <trkpt lat="56.890968676869" lon="14.824472001833">
        <ele>164.6</ele>
        <time>2020-03-02T18:40:01Z</time>
      </trkpt>
      <trkpt lat="56.891090717333" lon="14.824200344454">
        <ele>165.4</ele>
        <time>2020-03-02T18:40:08Z</time>
      </trkpt>
      <trkpt lat="56.891216194376" lon="14.823923155021">
        <ele>164.8</ele>
        <time>2020-03-02T18:40:15Z</time>
      </trkpt>
      <trkpt lat="56.891265228491" lon="14.823833636329">
        <ele>164.6</ele>
        <time>2020-03-02T18:40:18Z</time>
      </trkpt>
    </trkseg>
  </trk>
</gpx>